﻿<?xml version="1.0" encoding="UTF-8" standalone="no" ?>
<gpx xmlns="http://www.topografix.com/GPX/1/1" creator="CompeGPS" version="1.1" xmlns:xsi="http://www.w3.org/2001/XMLSchema-instance" xsi:schemaLocation="http://www.topografix.com/GPX/1/1 http://www.topografix.com/GPX/1/1/gpx.xsd http://www.garmin.com/xmlschemas/GpxExtensions/v3 http://www.garmin.com/xmlschemas/GpxExtensionsv3.xsd http://www.garmin.com/xmlschemas/TrackPointExtension/v1 http://www.garmin.com/xmlschemas/TrackPointExtensionv1.xsd" xmlns:gpxtpx="http://www.garmin.com/xmlschemas/TrackPointExtension/v1">
  <metadata>
    <link href="http://www.compegps.com">
      <text>CompeGPS TEAM, SL</text>
    </link>
    <time>2012-10-29T16:32:50Z</time>
    <bounds maxlat="43.407168" maxlon="1.486555" minlat="43.378621" minlon="1.439279"/>
  </metadata>
<wpt lat="43.403790" lon="1.448860">
<ele>184</ele>
<name>Depart Grepiac</name>
</wpt>
<wpt lat="43.400441" lon="1.445740">
<ele>170</ele>
<name>Pont</name>
</wpt>
<wpt lat="43.399598" lon="1.440609">
<ele>170</ele>
<name>Portail batiments hydro-electricite</name>
</wpt>
<wpt lat="43.391987" lon="1.450673">
<ele>180</ele>
<name>Gaillard Tournie</name>
</wpt>
<wpt lat="43.384046" lon="1.467237">
<ele>180</ele>
<name>Route de Mouzens</name>
</wpt>
<wpt lat="43.383806" lon="1.479619">
<ele>235</ele>
<name>Briolis</name>
</wpt>
<wpt lat="43.388870" lon="1.484716">
<ele>270</ele>
<name>Villeraze</name>
</wpt>
<wpt lat="43.402234" lon="1.473500">
<ele>240</ele>
<name>Bifurcation </name>
</wpt>
<wpt lat="43.406528" lon="1.472176">
<ele>240</ele>
<name>Labruyere-Dorsa</name>
</wpt>
  <trk>
    <name>Grepiac ramier et coteaux</name>
    <trkseg>
      <trkpt lat="43.403790" lon="1.448860">
        <ele>189.5</ele>
        <time>2012-10-29T11:39:53Z</time>
        <name>Depart Grepiac</name>
      </trkpt>
      <trkpt lat="43.403697" lon="1.448891">
        <ele>189.5</ele>
        <time>2012-10-29T11:40:07Z</time>
      </trkpt>
      <trkpt lat="43.403603" lon="1.448897">
        <ele>189.5</ele>
        <time>2012-10-29T11:40:22Z</time>
      </trkpt>
      <trkpt lat="43.403522" lon="1.448767">
        <ele>189.5</ele>
        <time>2012-10-29T11:40:33Z</time>
      </trkpt>
      <trkpt lat="43.403441" lon="1.448627">
        <ele>189.5</ele>
        <time>2012-10-29T11:40:47Z</time>
      </trkpt>
      <trkpt lat="43.403375" lon="1.448521">
        <ele>189.5</ele>
        <time>2012-10-29T11:40:56Z</time>
      </trkpt>
      <trkpt lat="43.403300" lon="1.448430">
        <ele>189.5</ele>
        <time>2012-10-29T11:41:06Z</time>
      </trkpt>
      <trkpt lat="43.403220" lon="1.448310">
        <ele>189.5</ele>
        <time>2012-10-29T11:41:17Z</time>
      </trkpt>
      <trkpt lat="43.403175" lon="1.448156">
        <ele>189.0</ele>
        <time>2012-10-29T11:41:30Z</time>
      </trkpt>
      <trkpt lat="43.403139" lon="1.447959">
        <ele>188.6</ele>
        <time>2012-10-29T11:41:43Z</time>
      </trkpt>
      <trkpt lat="43.403079" lon="1.447759">
        <ele>189.0</ele>
        <time>2012-10-29T11:41:58Z</time>
      </trkpt>
      <trkpt lat="43.403036" lon="1.447585">
        <ele>188.6</ele>
        <time>2012-10-29T11:42:11Z</time>
      </trkpt>
      <trkpt lat="43.402945" lon="1.447359">
        <ele>187.6</ele>
        <time>2012-10-29T11:42:29Z</time>
      </trkpt>
      <trkpt lat="43.402848" lon="1.447223">
        <ele>186.6</ele>
        <time>2012-10-29T11:42:41Z</time>
      </trkpt>
      <trkpt lat="43.402723" lon="1.447158">
        <ele>186.1</ele>
        <time>2012-10-29T11:43:12Z</time>
      </trkpt>
      <trkpt lat="43.402625" lon="1.447174">
        <ele>185.2</ele>
        <time>2012-10-29T11:43:22Z</time>
      </trkpt>
      <trkpt lat="43.402526" lon="1.447216">
        <ele>184.7</ele>
        <time>2012-10-29T11:43:31Z</time>
      </trkpt>
      <trkpt lat="43.402418" lon="1.447259">
        <ele>182.8</ele>
        <time>2012-10-29T11:43:41Z</time>
      </trkpt>
      <trkpt lat="43.402304" lon="1.447289">
        <ele>182.3</ele>
        <time>2012-10-29T11:43:52Z</time>
      </trkpt>
      <trkpt lat="43.402188" lon="1.447283">
        <ele>181.4</ele>
        <time>2012-10-29T11:44:02Z</time>
      </trkpt>
      <trkpt lat="43.402075" lon="1.447260">
        <ele>180.4</ele>
        <time>2012-10-29T11:44:11Z</time>
      </trkpt>
      <trkpt lat="43.401974" lon="1.447233">
        <ele>179.4</ele>
        <time>2012-10-29T11:44:19Z</time>
      </trkpt>
      <trkpt lat="43.401863" lon="1.447188">
        <ele>178.9</ele>
        <time>2012-10-29T11:44:29Z</time>
      </trkpt>
      <trkpt lat="43.401758" lon="1.447132">
        <ele>178.5</ele>
        <time>2012-10-29T11:44:39Z</time>
      </trkpt>
      <trkpt lat="43.401656" lon="1.447084">
        <ele>178.0</ele>
        <time>2012-10-29T11:44:54Z</time>
      </trkpt>
      <trkpt lat="43.401555" lon="1.447045">
        <ele>178.5</ele>
        <time>2012-10-29T11:45:03Z</time>
      </trkpt>
      <trkpt lat="43.401436" lon="1.446985">
        <ele>178.0</ele>
        <time>2012-10-29T11:45:12Z</time>
      </trkpt>
      <trkpt lat="43.401332" lon="1.446902">
        <ele>178.0</ele>
        <time>2012-10-29T11:45:20Z</time>
      </trkpt>
      <trkpt lat="43.401253" lon="1.446808">
        <ele>178.0</ele>
        <time>2012-10-29T11:45:29Z</time>
      </trkpt>
      <trkpt lat="43.401164" lon="1.446706">
        <ele>178.0</ele>
        <time>2012-10-29T11:45:41Z</time>
      </trkpt>
      <trkpt lat="43.401090" lon="1.446616">
        <ele>178.0</ele>
        <time>2012-10-29T11:45:51Z</time>
      </trkpt>
      <trkpt lat="43.400990" lon="1.446498">
        <ele>177.5</ele>
        <time>2012-10-29T11:46:01Z</time>
      </trkpt>
      <trkpt lat="43.400882" lon="1.446389">
        <ele>178.0</ele>
        <time>2012-10-29T11:46:11Z</time>
      </trkpt>
      <trkpt lat="43.400788" lon="1.446284">
        <ele>177.5</ele>
        <time>2012-10-29T11:46:22Z</time>
      </trkpt>
      <trkpt lat="43.400697" lon="1.446186">
        <ele>178.0</ele>
        <time>2012-10-29T11:46:33Z</time>
      </trkpt>
      <trkpt lat="43.400605" lon="1.446084">
        <ele>178.0</ele>
        <time>2012-10-29T11:46:43Z</time>
      </trkpt>
      <trkpt lat="43.400521" lon="1.445987">
        <ele>178.0</ele>
        <time>2012-10-29T11:46:53Z</time>
      </trkpt>
      <trkpt lat="43.400437" lon="1.445901">
        <ele>178.5</ele>
        <time>2012-10-29T11:47:06Z</time>
      </trkpt>
      <trkpt lat="43.400441" lon="1.445740">
        <ele>178.0</ele>
        <time>2012-10-29T11:47:18Z</time>
        <name>Pont</name>
      </trkpt>
      <trkpt lat="43.400501" lon="1.445604">
        <ele>178.5</ele>
        <time>2012-10-29T11:47:29Z</time>
      </trkpt>
      <trkpt lat="43.400613" lon="1.445584">
        <ele>178.5</ele>
        <time>2012-10-29T11:47:43Z</time>
      </trkpt>
      <trkpt lat="43.400765" lon="1.445575">
        <ele>178.0</ele>
        <time>2012-10-29T11:47:55Z</time>
      </trkpt>
      <trkpt lat="43.400926" lon="1.445543">
        <ele>177.5</ele>
        <time>2012-10-29T11:48:08Z</time>
      </trkpt>
      <trkpt lat="43.401036" lon="1.445514">
        <ele>177.5</ele>
        <time>2012-10-29T11:48:19Z</time>
      </trkpt>
      <trkpt lat="43.401161" lon="1.445494">
        <ele>177.5</ele>
        <time>2012-10-29T11:48:30Z</time>
      </trkpt>
      <trkpt lat="43.401266" lon="1.445355">
        <ele>177.5</ele>
        <time>2012-10-29T11:48:44Z</time>
      </trkpt>
      <trkpt lat="43.401198" lon="1.445217">
        <ele>178.0</ele>
        <time>2012-10-29T11:48:55Z</time>
      </trkpt>
      <trkpt lat="43.401136" lon="1.445068">
        <ele>178.0</ele>
        <time>2012-10-29T11:49:07Z</time>
      </trkpt>
      <trkpt lat="43.401056" lon="1.444896">
        <ele>178.5</ele>
        <time>2012-10-29T11:49:18Z</time>
      </trkpt>
      <trkpt lat="43.400978" lon="1.444746">
        <ele>178.5</ele>
        <time>2012-10-29T11:49:30Z</time>
      </trkpt>
      <trkpt lat="43.400910" lon="1.444589">
        <ele>178.0</ele>
        <time>2012-10-29T11:49:41Z</time>
      </trkpt>
      <trkpt lat="43.400847" lon="1.444466">
        <ele>178.5</ele>
        <time>2012-10-29T11:49:50Z</time>
      </trkpt>
      <trkpt lat="43.400750" lon="1.444345">
        <ele>178.5</ele>
        <time>2012-10-29T11:50:02Z</time>
      </trkpt>
      <trkpt lat="43.400680" lon="1.444191">
        <ele>178.0</ele>
        <time>2012-10-29T11:50:12Z</time>
      </trkpt>
      <trkpt lat="43.400616" lon="1.444047">
        <ele>178.9</ele>
        <time>2012-10-29T11:50:20Z</time>
      </trkpt>
      <trkpt lat="43.400531" lon="1.443942">
        <ele>178.9</ele>
        <time>2012-10-29T11:50:28Z</time>
      </trkpt>
      <trkpt lat="43.400483" lon="1.443991">
        <ele>178.9</ele>
        <time>2012-10-29T11:53:25Z</time>
      </trkpt>
      <trkpt lat="43.400469" lon="1.443922">
        <ele>178.9</ele>
        <time>2012-10-29T11:53:43Z</time>
      </trkpt>
      <trkpt lat="43.400469" lon="1.443756">
        <ele>179.4</ele>
        <time>2012-10-29T11:53:58Z</time>
      </trkpt>
      <trkpt lat="43.400410" lon="1.443612">
        <ele>179.4</ele>
        <time>2012-10-29T11:54:09Z</time>
      </trkpt>
      <trkpt lat="43.400336" lon="1.443454">
        <ele>179.4</ele>
        <time>2012-10-29T11:54:26Z</time>
      </trkpt>
      <trkpt lat="43.400267" lon="1.443323">
        <ele>178.9</ele>
        <time>2012-10-29T11:54:37Z</time>
      </trkpt>
      <trkpt lat="43.400180" lon="1.443157">
        <ele>178.5</ele>
        <time>2012-10-29T11:54:50Z</time>
      </trkpt>
      <trkpt lat="43.400108" lon="1.443020">
        <ele>178.9</ele>
        <time>2012-10-29T11:55:09Z</time>
      </trkpt>
      <trkpt lat="43.400019" lon="1.442877">
        <ele>178.5</ele>
        <time>2012-10-29T11:55:19Z</time>
      </trkpt>
      <trkpt lat="43.399957" lon="1.442735">
        <ele>178.5</ele>
        <time>2012-10-29T11:55:28Z</time>
      </trkpt>
      <trkpt lat="43.399903" lon="1.442593">
        <ele>178.9</ele>
        <time>2012-10-29T11:55:38Z</time>
      </trkpt>
      <trkpt lat="43.399847" lon="1.442454">
        <ele>178.5</ele>
        <time>2012-10-29T11:55:47Z</time>
      </trkpt>
      <trkpt lat="43.399777" lon="1.442221">
        <ele>178.5</ele>
        <time>2012-10-29T11:56:01Z</time>
      </trkpt>
      <trkpt lat="43.399681" lon="1.442100">
        <ele>178.5</ele>
        <time>2012-10-29T11:56:14Z</time>
      </trkpt>
      <trkpt lat="43.399602" lon="1.441965">
        <ele>178.5</ele>
        <time>2012-10-29T11:56:26Z</time>
      </trkpt>
      <trkpt lat="43.399535" lon="1.441829">
        <ele>178.0</ele>
        <time>2012-10-29T11:56:36Z</time>
      </trkpt>
      <trkpt lat="43.399473" lon="1.441678">
        <ele>178.0</ele>
        <time>2012-10-29T11:56:46Z</time>
      </trkpt>
      <trkpt lat="43.399412" lon="1.441505">
        <ele>178.0</ele>
        <time>2012-10-29T11:56:56Z</time>
      </trkpt>
      <trkpt lat="43.399362" lon="1.441374">
        <ele>178.0</ele>
        <time>2012-10-29T11:57:04Z</time>
      </trkpt>
      <trkpt lat="43.399292" lon="1.441228">
        <ele>178.0</ele>
        <time>2012-10-29T11:57:14Z</time>
      </trkpt>
      <trkpt lat="43.399190" lon="1.441013">
        <ele>178.5</ele>
        <time>2012-10-29T11:57:46Z</time>
      </trkpt>
      <trkpt lat="43.399255" lon="1.440945">
        <ele>178.0</ele>
        <time>2012-10-29T11:59:09Z</time>
      </trkpt>
      <trkpt lat="43.399329" lon="1.440803">
        <ele>178.0</ele>
        <time>2012-10-29T11:59:18Z</time>
      </trkpt>
      <trkpt lat="43.399430" lon="1.440693">
        <ele>178.0</ele>
        <time>2012-10-29T11:59:31Z</time>
      </trkpt>
      <trkpt lat="43.399598" lon="1.440609">
        <ele>178.0</ele>
        <time>2012-10-29T11:59:48Z</time>
        <name>Portail batiments hydro-electricite</name>
      </trkpt>
      <trkpt lat="43.399614" lon="1.440488">
        <ele>177.5</ele>
        <time>2012-10-29T12:00:42Z</time>
      </trkpt>
      <trkpt lat="43.399607" lon="1.440291">
        <ele>178.0</ele>
        <time>2012-10-29T12:00:54Z</time>
      </trkpt>
      <trkpt lat="43.399483" lon="1.440191">
        <ele>177.5</ele>
        <time>2012-10-29T12:01:07Z</time>
      </trkpt>
      <trkpt lat="43.399377" lon="1.440120">
        <ele>178.5</ele>
        <time>2012-10-29T12:01:17Z</time>
      </trkpt>
      <trkpt lat="43.399285" lon="1.439972">
        <ele>177.5</ele>
        <time>2012-10-29T12:01:29Z</time>
      </trkpt>
      <trkpt lat="43.399139" lon="1.439798">
        <ele>178.0</ele>
        <time>2012-10-29T12:01:42Z</time>
      </trkpt>
      <trkpt lat="43.398994" lon="1.439687">
        <ele>177.5</ele>
        <time>2012-10-29T12:01:54Z</time>
      </trkpt>
      <trkpt lat="43.398856" lon="1.439495">
        <ele>177.5</ele>
        <time>2012-10-29T12:02:10Z</time>
      </trkpt>
      <trkpt lat="43.398762" lon="1.439388">
        <ele>176.5</ele>
        <time>2012-10-29T12:02:19Z</time>
      </trkpt>
      <trkpt lat="43.398660" lon="1.439345">
        <ele>176.5</ele>
        <time>2012-10-29T12:02:29Z</time>
      </trkpt>
      <trkpt lat="43.398506" lon="1.439353">
        <ele>177.0</ele>
        <time>2012-10-29T12:02:47Z</time>
      </trkpt>
      <trkpt lat="43.398296" lon="1.439365">
        <ele>175.6</ele>
        <time>2012-10-29T12:03:02Z</time>
      </trkpt>
      <trkpt lat="43.398124" lon="1.439358">
        <ele>175.6</ele>
        <time>2012-10-29T12:03:14Z</time>
      </trkpt>
      <trkpt lat="43.397937" lon="1.439331">
        <ele>176.1</ele>
        <time>2012-10-29T12:03:25Z</time>
      </trkpt>
      <trkpt lat="43.397768" lon="1.439281">
        <ele>175.6</ele>
        <time>2012-10-29T12:03:36Z</time>
      </trkpt>
      <trkpt lat="43.397618" lon="1.439279">
        <ele>176.1</ele>
        <time>2012-10-29T12:03:54Z</time>
      </trkpt>
      <trkpt lat="43.397493" lon="1.439307">
        <ele>176.1</ele>
        <time>2012-10-29T12:04:03Z</time>
      </trkpt>
      <trkpt lat="43.397365" lon="1.439341">
        <ele>177.0</ele>
        <time>2012-10-29T12:04:14Z</time>
      </trkpt>
      <trkpt lat="43.397201" lon="1.439361">
        <ele>176.5</ele>
        <time>2012-10-29T12:04:25Z</time>
      </trkpt>
      <trkpt lat="43.397044" lon="1.439435">
        <ele>176.1</ele>
        <time>2012-10-29T12:04:39Z</time>
      </trkpt>
      <trkpt lat="43.396876" lon="1.439520">
        <ele>177.0</ele>
        <time>2012-10-29T12:04:51Z</time>
      </trkpt>
      <trkpt lat="43.396714" lon="1.439537">
        <ele>177.5</ele>
        <time>2012-10-29T12:05:01Z</time>
      </trkpt>
      <trkpt lat="43.396562" lon="1.439567">
        <ele>176.5</ele>
        <time>2012-10-29T12:05:15Z</time>
      </trkpt>
      <trkpt lat="43.396414" lon="1.439634">
        <ele>176.1</ele>
        <time>2012-10-29T12:05:27Z</time>
      </trkpt>
      <trkpt lat="43.396282" lon="1.439691">
        <ele>176.1</ele>
        <time>2012-10-29T12:05:37Z</time>
      </trkpt>
      <trkpt lat="43.396159" lon="1.439812">
        <ele>175.6</ele>
        <time>2012-10-29T12:05:48Z</time>
      </trkpt>
      <trkpt lat="43.396011" lon="1.439898">
        <ele>176.1</ele>
        <time>2012-10-29T12:05:59Z</time>
      </trkpt>
      <trkpt lat="43.395874" lon="1.440005">
        <ele>176.5</ele>
        <time>2012-10-29T12:06:09Z</time>
      </trkpt>
      <trkpt lat="43.395661" lon="1.440106">
        <ele>176.1</ele>
        <time>2012-10-29T12:06:36Z</time>
      </trkpt>
      <trkpt lat="43.395502" lon="1.440214">
        <ele>176.5</ele>
        <time>2012-10-29T12:06:50Z</time>
      </trkpt>
      <trkpt lat="43.395392" lon="1.440318">
        <ele>176.1</ele>
        <time>2012-10-29T12:07:00Z</time>
      </trkpt>
      <trkpt lat="43.395236" lon="1.440384">
        <ele>176.5</ele>
        <time>2012-10-29T12:07:10Z</time>
      </trkpt>
      <trkpt lat="43.395089" lon="1.440496">
        <ele>176.5</ele>
        <time>2012-10-29T12:07:22Z</time>
      </trkpt>
      <trkpt lat="43.394947" lon="1.440480">
        <ele>175.6</ele>
        <time>2012-10-29T12:07:37Z</time>
      </trkpt>
      <trkpt lat="43.394886" lon="1.440539">
        <ele>175.6</ele>
        <time>2012-10-29T12:08:54Z</time>
      </trkpt>
      <trkpt lat="43.394766" lon="1.440667">
        <ele>175.6</ele>
        <time>2012-10-29T12:09:43Z</time>
      </trkpt>
      <trkpt lat="43.394662" lon="1.440753">
        <ele>175.6</ele>
        <time>2012-10-29T12:09:56Z</time>
      </trkpt>
      <trkpt lat="43.394581" lon="1.440844">
        <ele>176.5</ele>
        <time>2012-10-29T12:10:03Z</time>
      </trkpt>
      <trkpt lat="43.394471" lon="1.440939">
        <ele>176.5</ele>
        <time>2012-10-29T12:10:11Z</time>
      </trkpt>
      <trkpt lat="43.394355" lon="1.441049">
        <ele>176.1</ele>
        <time>2012-10-29T12:10:23Z</time>
      </trkpt>
      <trkpt lat="43.394244" lon="1.441190">
        <ele>176.1</ele>
        <time>2012-10-29T12:10:31Z</time>
      </trkpt>
      <trkpt lat="43.394164" lon="1.441328">
        <ele>176.1</ele>
        <time>2012-10-29T12:10:42Z</time>
      </trkpt>
      <trkpt lat="43.394135" lon="1.441506">
        <ele>177.0</ele>
        <time>2012-10-29T12:10:50Z</time>
      </trkpt>
      <trkpt lat="43.394073" lon="1.441649">
        <ele>177.5</ele>
        <time>2012-10-29T12:11:03Z</time>
      </trkpt>
      <trkpt lat="43.394081" lon="1.441812">
        <ele>176.1</ele>
        <time>2012-10-29T12:11:14Z</time>
      </trkpt>
      <trkpt lat="43.394157" lon="1.441919">
        <ele>176.5</ele>
        <time>2012-10-29T12:11:22Z</time>
      </trkpt>
      <trkpt lat="43.394174" lon="1.442082">
        <ele>177.0</ele>
        <time>2012-10-29T12:11:29Z</time>
      </trkpt>
      <trkpt lat="43.394190" lon="1.442241">
        <ele>177.5</ele>
        <time>2012-10-29T12:11:37Z</time>
      </trkpt>
      <trkpt lat="43.394161" lon="1.442423">
        <ele>178.0</ele>
        <time>2012-10-29T12:11:46Z</time>
      </trkpt>
      <trkpt lat="43.394158" lon="1.442594">
        <ele>177.5</ele>
        <time>2012-10-29T12:11:54Z</time>
      </trkpt>
      <trkpt lat="43.394146" lon="1.442751">
        <ele>177.5</ele>
        <time>2012-10-29T12:12:12Z</time>
      </trkpt>
      <trkpt lat="43.394159" lon="1.442921">
        <ele>177.5</ele>
        <time>2012-10-29T12:12:22Z</time>
      </trkpt>
      <trkpt lat="43.394140" lon="1.443076">
        <ele>178.0</ele>
        <time>2012-10-29T12:12:34Z</time>
      </trkpt>
      <trkpt lat="43.394070" lon="1.443206">
        <ele>178.0</ele>
        <time>2012-10-29T12:12:43Z</time>
      </trkpt>
      <trkpt lat="43.394045" lon="1.443358">
        <ele>178.0</ele>
        <time>2012-10-29T12:12:52Z</time>
      </trkpt>
      <trkpt lat="43.394048" lon="1.443516">
        <ele>178.5</ele>
        <time>2012-10-29T12:12:59Z</time>
      </trkpt>
      <trkpt lat="43.394059" lon="1.443700">
        <ele>178.9</ele>
        <time>2012-10-29T12:13:09Z</time>
      </trkpt>
      <trkpt lat="43.394027" lon="1.443942">
        <ele>178.5</ele>
        <time>2012-10-29T12:13:19Z</time>
      </trkpt>
      <trkpt lat="43.393961" lon="1.444122">
        <ele>178.5</ele>
        <time>2012-10-29T12:13:27Z</time>
      </trkpt>
      <trkpt lat="43.393909" lon="1.444265">
        <ele>178.9</ele>
        <time>2012-10-29T12:13:35Z</time>
      </trkpt>
      <trkpt lat="43.393843" lon="1.444390">
        <ele>178.5</ele>
        <time>2012-10-29T12:13:43Z</time>
      </trkpt>
      <trkpt lat="43.393767" lon="1.444520">
        <ele>178.9</ele>
        <time>2012-10-29T12:13:51Z</time>
      </trkpt>
      <trkpt lat="43.393684" lon="1.444649">
        <ele>178.9</ele>
        <time>2012-10-29T12:14:00Z</time>
      </trkpt>
      <trkpt lat="43.393655" lon="1.444795">
        <ele>178.9</ele>
        <time>2012-10-29T12:14:08Z</time>
      </trkpt>
      <trkpt lat="43.393597" lon="1.444959">
        <ele>178.9</ele>
        <time>2012-10-29T12:14:16Z</time>
      </trkpt>
      <trkpt lat="43.393541" lon="1.445078">
        <ele>178.5</ele>
        <time>2012-10-29T12:14:23Z</time>
      </trkpt>
      <trkpt lat="43.393442" lon="1.445198">
        <ele>178.9</ele>
        <time>2012-10-29T12:14:31Z</time>
      </trkpt>
      <trkpt lat="43.393403" lon="1.445333">
        <ele>178.5</ele>
        <time>2012-10-29T12:14:39Z</time>
      </trkpt>
      <trkpt lat="43.393359" lon="1.445477">
        <ele>178.9</ele>
        <time>2012-10-29T12:14:46Z</time>
      </trkpt>
      <trkpt lat="43.393300" lon="1.445611">
        <ele>178.9</ele>
        <time>2012-10-29T12:14:53Z</time>
      </trkpt>
      <trkpt lat="43.393238" lon="1.445742">
        <ele>178.9</ele>
        <time>2012-10-29T12:15:00Z</time>
      </trkpt>
      <trkpt lat="43.393181" lon="1.445864">
        <ele>178.5</ele>
        <time>2012-10-29T12:15:07Z</time>
      </trkpt>
      <trkpt lat="43.393134" lon="1.446012">
        <ele>178.9</ele>
        <time>2012-10-29T12:15:14Z</time>
      </trkpt>
      <trkpt lat="43.393096" lon="1.446137">
        <ele>178.9</ele>
        <time>2012-10-29T12:15:20Z</time>
      </trkpt>
      <trkpt lat="43.393039" lon="1.446271">
        <ele>178.9</ele>
        <time>2012-10-29T12:15:27Z</time>
      </trkpt>
      <trkpt lat="43.392996" lon="1.446414">
        <ele>178.5</ele>
        <time>2012-10-29T12:15:34Z</time>
      </trkpt>
      <trkpt lat="43.392957" lon="1.446551">
        <ele>178.5</ele>
        <time>2012-10-29T12:15:41Z</time>
      </trkpt>
      <trkpt lat="43.392901" lon="1.446712">
        <ele>178.0</ele>
        <time>2012-10-29T12:15:49Z</time>
      </trkpt>
      <trkpt lat="43.392839" lon="1.446857">
        <ele>177.5</ele>
        <time>2012-10-29T12:15:57Z</time>
      </trkpt>
      <trkpt lat="43.392751" lon="1.447036">
        <ele>178.0</ele>
        <time>2012-10-29T12:16:07Z</time>
      </trkpt>
      <trkpt lat="43.392662" lon="1.447165">
        <ele>177.5</ele>
        <time>2012-10-29T12:16:17Z</time>
      </trkpt>
      <trkpt lat="43.392566" lon="1.447278">
        <ele>178.0</ele>
        <time>2012-10-29T12:16:26Z</time>
      </trkpt>
      <trkpt lat="43.392497" lon="1.447431">
        <ele>178.0</ele>
        <time>2012-10-29T12:16:34Z</time>
      </trkpt>
      <trkpt lat="43.392403" lon="1.447626">
        <ele>178.5</ele>
        <time>2012-10-29T12:16:44Z</time>
      </trkpt>
      <trkpt lat="43.392351" lon="1.447787">
        <ele>178.0</ele>
        <time>2012-10-29T12:16:54Z</time>
      </trkpt>
      <trkpt lat="43.392330" lon="1.447938">
        <ele>178.5</ele>
        <time>2012-10-29T12:17:03Z</time>
      </trkpt>
      <trkpt lat="43.392263" lon="1.448152">
        <ele>178.9</ele>
        <time>2012-10-29T12:17:13Z</time>
      </trkpt>
      <trkpt lat="43.392242" lon="1.448323">
        <ele>178.5</ele>
        <time>2012-10-29T12:17:20Z</time>
      </trkpt>
      <trkpt lat="43.392210" lon="1.448492">
        <ele>178.0</ele>
        <time>2012-10-29T12:17:28Z</time>
      </trkpt>
      <trkpt lat="43.392181" lon="1.448687">
        <ele>178.0</ele>
        <time>2012-10-29T12:17:37Z</time>
      </trkpt>
      <trkpt lat="43.392195" lon="1.448825">
        <ele>178.5</ele>
        <time>2012-10-29T12:17:46Z</time>
      </trkpt>
      <trkpt lat="43.392250" lon="1.448993">
        <ele>178.0</ele>
        <time>2012-10-29T12:17:55Z</time>
      </trkpt>
      <trkpt lat="43.392240" lon="1.449264">
        <ele>177.5</ele>
        <time>2012-10-29T12:18:08Z</time>
      </trkpt>
      <trkpt lat="43.392261" lon="1.449448">
        <ele>179.4</ele>
        <time>2012-10-29T12:18:16Z</time>
      </trkpt>
      <trkpt lat="43.392330" lon="1.449607">
        <ele>178.9</ele>
        <time>2012-10-29T12:18:27Z</time>
      </trkpt>
      <trkpt lat="43.392463" lon="1.449721">
        <ele>178.5</ele>
        <time>2012-10-29T12:18:38Z</time>
      </trkpt>
      <trkpt lat="43.392632" lon="1.449829">
        <ele>179.9</ele>
        <time>2012-10-29T12:18:51Z</time>
      </trkpt>
      <trkpt lat="43.392697" lon="1.450020">
        <ele>181.8</ele>
        <time>2012-10-29T12:19:01Z</time>
      </trkpt>
      <trkpt lat="43.392686" lon="1.450219">
        <ele>183.3</ele>
        <time>2012-10-29T12:19:10Z</time>
      </trkpt>
      <trkpt lat="43.392598" lon="1.450283">
        <ele>185.7</ele>
        <time>2012-10-29T12:19:20Z</time>
      </trkpt>
      <trkpt lat="43.392502" lon="1.450350">
        <ele>186.6</ele>
        <time>2012-10-29T12:19:32Z</time>
      </trkpt>
      <trkpt lat="43.392370" lon="1.450440">
        <ele>188.1</ele>
        <time>2012-10-29T12:19:48Z</time>
      </trkpt>
      <trkpt lat="43.392265" lon="1.450531">
        <ele>189.5</ele>
        <time>2012-10-29T12:20:00Z</time>
      </trkpt>
      <trkpt lat="43.392105" lon="1.450621">
        <ele>190.0</ele>
        <time>2012-10-29T12:20:15Z</time>
      </trkpt>
      <trkpt lat="43.391987" lon="1.450673">
        <ele>190.0</ele>
        <time>2012-10-29T12:20:29Z</time>
        <name>Gaillard Tournie</name>
      </trkpt>
      <trkpt lat="43.391880" lon="1.450771">
        <ele>190.0</ele>
        <time>2012-10-29T12:20:40Z</time>
      </trkpt>
      <trkpt lat="43.391793" lon="1.450839">
        <ele>190.5</ele>
        <time>2012-10-29T12:20:49Z</time>
      </trkpt>
      <trkpt lat="43.391705" lon="1.450921">
        <ele>189.5</ele>
        <time>2012-10-29T12:21:07Z</time>
      </trkpt>
      <trkpt lat="43.391604" lon="1.451002">
        <ele>190.0</ele>
        <time>2012-10-29T12:21:18Z</time>
      </trkpt>
      <trkpt lat="43.391520" lon="1.451095">
        <ele>190.5</ele>
        <time>2012-10-29T12:21:27Z</time>
      </trkpt>
      <trkpt lat="43.391430" lon="1.451177">
        <ele>190.0</ele>
        <time>2012-10-29T12:21:37Z</time>
      </trkpt>
      <trkpt lat="43.391338" lon="1.451245">
        <ele>190.5</ele>
        <time>2012-10-29T12:21:48Z</time>
      </trkpt>
      <trkpt lat="43.391272" lon="1.451352">
        <ele>190.5</ele>
        <time>2012-10-29T12:21:57Z</time>
      </trkpt>
      <trkpt lat="43.391222" lon="1.451479">
        <ele>191.0</ele>
        <time>2012-10-29T12:22:05Z</time>
      </trkpt>
      <trkpt lat="43.391160" lon="1.451622">
        <ele>191.0</ele>
        <time>2012-10-29T12:22:14Z</time>
      </trkpt>
      <trkpt lat="43.391136" lon="1.451762">
        <ele>191.4</ele>
        <time>2012-10-29T12:22:22Z</time>
      </trkpt>
      <trkpt lat="43.391108" lon="1.451896">
        <ele>191.0</ele>
        <time>2012-10-29T12:22:31Z</time>
      </trkpt>
      <trkpt lat="43.391063" lon="1.452045">
        <ele>191.4</ele>
        <time>2012-10-29T12:22:39Z</time>
      </trkpt>
      <trkpt lat="43.391029" lon="1.452192">
        <ele>191.4</ele>
        <time>2012-10-29T12:22:47Z</time>
      </trkpt>
      <trkpt lat="43.390991" lon="1.452320">
        <ele>191.4</ele>
        <time>2012-10-29T12:22:55Z</time>
      </trkpt>
      <trkpt lat="43.390955" lon="1.452460">
        <ele>191.9</ele>
        <time>2012-10-29T12:23:04Z</time>
      </trkpt>
      <trkpt lat="43.390942" lon="1.452601">
        <ele>191.9</ele>
        <time>2012-10-29T12:23:13Z</time>
      </trkpt>
      <trkpt lat="43.390931" lon="1.452750">
        <ele>192.4</ele>
        <time>2012-10-29T12:23:21Z</time>
      </trkpt>
      <trkpt lat="43.390919" lon="1.452890">
        <ele>191.9</ele>
        <time>2012-10-29T12:23:29Z</time>
      </trkpt>
      <trkpt lat="43.390907" lon="1.453019">
        <ele>191.4</ele>
        <time>2012-10-29T12:23:36Z</time>
      </trkpt>
      <trkpt lat="43.390906" lon="1.453165">
        <ele>191.9</ele>
        <time>2012-10-29T12:23:44Z</time>
      </trkpt>
      <trkpt lat="43.390918" lon="1.453298">
        <ele>191.9</ele>
        <time>2012-10-29T12:23:51Z</time>
      </trkpt>
      <trkpt lat="43.390921" lon="1.453439">
        <ele>191.4</ele>
        <time>2012-10-29T12:23:59Z</time>
      </trkpt>
      <trkpt lat="43.390906" lon="1.453591">
        <ele>191.0</ele>
        <time>2012-10-29T12:24:06Z</time>
      </trkpt>
      <trkpt lat="43.390891" lon="1.453758">
        <ele>191.0</ele>
        <time>2012-10-29T12:24:14Z</time>
      </trkpt>
      <trkpt lat="43.390888" lon="1.453916">
        <ele>191.0</ele>
        <time>2012-10-29T12:24:22Z</time>
      </trkpt>
      <trkpt lat="43.390878" lon="1.454062">
        <ele>191.0</ele>
        <time>2012-10-29T12:24:29Z</time>
      </trkpt>
      <trkpt lat="43.390861" lon="1.454214">
        <ele>191.0</ele>
        <time>2012-10-29T12:24:36Z</time>
      </trkpt>
      <trkpt lat="43.390857" lon="1.454354">
        <ele>191.0</ele>
        <time>2012-10-29T12:24:43Z</time>
      </trkpt>
      <trkpt lat="43.390848" lon="1.454499">
        <ele>191.0</ele>
        <time>2012-10-29T12:24:50Z</time>
      </trkpt>
      <trkpt lat="43.390842" lon="1.454644">
        <ele>191.0</ele>
        <time>2012-10-29T12:24:57Z</time>
      </trkpt>
      <trkpt lat="43.390835" lon="1.454796">
        <ele>191.0</ele>
        <time>2012-10-29T12:25:05Z</time>
      </trkpt>
      <trkpt lat="43.390824" lon="1.454941">
        <ele>191.0</ele>
        <time>2012-10-29T12:25:12Z</time>
      </trkpt>
      <trkpt lat="43.390820" lon="1.455100">
        <ele>191.0</ele>
        <time>2012-10-29T12:25:19Z</time>
      </trkpt>
      <trkpt lat="43.390807" lon="1.455237">
        <ele>191.0</ele>
        <time>2012-10-29T12:25:26Z</time>
      </trkpt>
      <trkpt lat="43.390802" lon="1.455396">
        <ele>191.0</ele>
        <time>2012-10-29T12:25:34Z</time>
      </trkpt>
      <trkpt lat="43.390798" lon="1.455531">
        <ele>191.0</ele>
        <time>2012-10-29T12:25:41Z</time>
      </trkpt>
      <trkpt lat="43.390802" lon="1.455665">
        <ele>191.9</ele>
        <time>2012-10-29T12:25:48Z</time>
      </trkpt>
      <trkpt lat="43.390799" lon="1.455802">
        <ele>191.0</ele>
        <time>2012-10-29T12:25:55Z</time>
      </trkpt>
      <trkpt lat="43.390803" lon="1.455937">
        <ele>192.9</ele>
        <time>2012-10-29T12:26:01Z</time>
      </trkpt>
      <trkpt lat="43.390814" lon="1.456080">
        <ele>191.9</ele>
        <time>2012-10-29T12:26:09Z</time>
      </trkpt>
      <trkpt lat="43.390842" lon="1.456226">
        <ele>192.4</ele>
        <time>2012-10-29T12:26:18Z</time>
      </trkpt>
      <trkpt lat="43.390861" lon="1.456367">
        <ele>191.9</ele>
        <time>2012-10-29T12:26:26Z</time>
      </trkpt>
      <trkpt lat="43.390882" lon="1.456510">
        <ele>191.4</ele>
        <time>2012-10-29T12:26:34Z</time>
      </trkpt>
      <trkpt lat="43.390888" lon="1.456648">
        <ele>191.9</ele>
        <time>2012-10-29T12:26:42Z</time>
      </trkpt>
      <trkpt lat="43.390898" lon="1.456792">
        <ele>191.9</ele>
        <time>2012-10-29T12:26:50Z</time>
      </trkpt>
      <trkpt lat="43.390927" lon="1.456938">
        <ele>191.4</ele>
        <time>2012-10-29T12:26:58Z</time>
      </trkpt>
      <trkpt lat="43.390913" lon="1.457064">
        <ele>191.0</ele>
        <time>2012-10-29T12:27:06Z</time>
      </trkpt>
      <trkpt lat="43.390817" lon="1.457094">
        <ele>191.0</ele>
        <time>2012-10-29T12:27:13Z</time>
      </trkpt>
      <trkpt lat="43.390734" lon="1.457169">
        <ele>191.0</ele>
        <time>2012-10-29T12:27:20Z</time>
      </trkpt>
      <trkpt lat="43.390661" lon="1.457275">
        <ele>191.4</ele>
        <time>2012-10-29T12:27:27Z</time>
      </trkpt>
      <trkpt lat="43.390559" lon="1.457298">
        <ele>191.9</ele>
        <time>2012-10-29T12:27:34Z</time>
      </trkpt>
      <trkpt lat="43.390463" lon="1.457335">
        <ele>191.9</ele>
        <time>2012-10-29T12:27:41Z</time>
      </trkpt>
      <trkpt lat="43.390386" lon="1.457412">
        <ele>191.9</ele>
        <time>2012-10-29T12:27:49Z</time>
      </trkpt>
      <trkpt lat="43.390343" lon="1.457548">
        <ele>192.4</ele>
        <time>2012-10-29T12:27:58Z</time>
      </trkpt>
      <trkpt lat="43.390307" lon="1.457680">
        <ele>192.4</ele>
        <time>2012-10-29T12:28:07Z</time>
      </trkpt>
      <trkpt lat="43.390278" lon="1.457813">
        <ele>192.9</ele>
        <time>2012-10-29T12:28:15Z</time>
      </trkpt>
      <trkpt lat="43.390237" lon="1.457948">
        <ele>192.9</ele>
        <time>2012-10-29T12:28:23Z</time>
      </trkpt>
      <trkpt lat="43.390194" lon="1.458075">
        <ele>193.4</ele>
        <time>2012-10-29T12:28:31Z</time>
      </trkpt>
      <trkpt lat="43.390158" lon="1.458208">
        <ele>192.9</ele>
        <time>2012-10-29T12:28:40Z</time>
      </trkpt>
      <trkpt lat="43.390121" lon="1.458331">
        <ele>193.4</ele>
        <time>2012-10-29T12:28:48Z</time>
      </trkpt>
      <trkpt lat="43.390082" lon="1.458451">
        <ele>193.4</ele>
        <time>2012-10-29T12:28:56Z</time>
      </trkpt>
      <trkpt lat="43.390040" lon="1.458549">
        <ele>193.4</ele>
        <time>2012-10-29T12:29:04Z</time>
      </trkpt>
      <trkpt lat="43.390005" lon="1.458662">
        <ele>192.9</ele>
        <time>2012-10-29T12:29:18Z</time>
      </trkpt>
      <trkpt lat="43.389970" lon="1.458779">
        <ele>193.4</ele>
        <time>2012-10-29T12:29:26Z</time>
      </trkpt>
      <trkpt lat="43.389947" lon="1.458901">
        <ele>192.9</ele>
        <time>2012-10-29T12:29:49Z</time>
      </trkpt>
      <trkpt lat="43.389907" lon="1.459022">
        <ele>192.9</ele>
        <time>2012-10-29T12:29:56Z</time>
      </trkpt>
      <trkpt lat="43.389869" lon="1.459160">
        <ele>192.9</ele>
        <time>2012-10-29T12:30:04Z</time>
      </trkpt>
      <trkpt lat="43.389824" lon="1.459290">
        <ele>193.8</ele>
        <time>2012-10-29T12:30:12Z</time>
      </trkpt>
      <trkpt lat="43.389789" lon="1.459425">
        <ele>194.3</ele>
        <time>2012-10-29T12:30:19Z</time>
      </trkpt>
      <trkpt lat="43.389757" lon="1.459528">
        <ele>194.8</ele>
        <time>2012-10-29T12:30:25Z</time>
      </trkpt>
      <trkpt lat="43.389716" lon="1.459649">
        <ele>195.3</ele>
        <time>2012-10-29T12:30:33Z</time>
      </trkpt>
      <trkpt lat="43.389661" lon="1.459791">
        <ele>195.3</ele>
        <time>2012-10-29T12:30:43Z</time>
      </trkpt>
      <trkpt lat="43.389611" lon="1.459937">
        <ele>196.2</ele>
        <time>2012-10-29T12:30:52Z</time>
      </trkpt>
      <trkpt lat="43.389567" lon="1.460064">
        <ele>196.2</ele>
        <time>2012-10-29T12:31:00Z</time>
      </trkpt>
      <trkpt lat="43.389523" lon="1.460206">
        <ele>197.2</ele>
        <time>2012-10-29T12:31:08Z</time>
      </trkpt>
      <trkpt lat="43.389484" lon="1.460339">
        <ele>197.7</ele>
        <time>2012-10-29T12:31:15Z</time>
      </trkpt>
      <trkpt lat="43.389458" lon="1.460470">
        <ele>198.2</ele>
        <time>2012-10-29T12:31:22Z</time>
      </trkpt>
      <trkpt lat="43.389428" lon="1.460606">
        <ele>199.1</ele>
        <time>2012-10-29T12:31:28Z</time>
      </trkpt>
      <trkpt lat="43.389386" lon="1.460753">
        <ele>199.6</ele>
        <time>2012-10-29T12:31:35Z</time>
      </trkpt>
      <trkpt lat="43.389339" lon="1.460886">
        <ele>200.6</ele>
        <time>2012-10-29T12:31:43Z</time>
      </trkpt>
      <trkpt lat="43.389303" lon="1.461033">
        <ele>201.5</ele>
        <time>2012-10-29T12:31:51Z</time>
      </trkpt>
      <trkpt lat="43.389243" lon="1.461181">
        <ele>202.5</ele>
        <time>2012-10-29T12:31:59Z</time>
      </trkpt>
      <trkpt lat="43.389185" lon="1.461298">
        <ele>203.5</ele>
        <time>2012-10-29T12:32:06Z</time>
      </trkpt>
      <trkpt lat="43.389114" lon="1.461409">
        <ele>204.9</ele>
        <time>2012-10-29T12:32:13Z</time>
      </trkpt>
      <trkpt lat="43.389038" lon="1.461508">
        <ele>205.9</ele>
        <time>2012-10-29T12:32:20Z</time>
      </trkpt>
      <trkpt lat="43.388952" lon="1.461578">
        <ele>206.8</ele>
        <time>2012-10-29T12:32:26Z</time>
      </trkpt>
      <trkpt lat="43.388862" lon="1.461681">
        <ele>208.3</ele>
        <time>2012-10-29T12:32:33Z</time>
      </trkpt>
      <trkpt lat="43.388792" lon="1.461777">
        <ele>208.7</ele>
        <time>2012-10-29T12:32:39Z</time>
      </trkpt>
      <trkpt lat="43.388722" lon="1.461850">
        <ele>210.2</ele>
        <time>2012-10-29T12:32:45Z</time>
      </trkpt>
      <trkpt lat="43.388652" lon="1.461929">
        <ele>211.1</ele>
        <time>2012-10-29T12:32:52Z</time>
      </trkpt>
      <trkpt lat="43.388572" lon="1.462008">
        <ele>212.1</ele>
        <time>2012-10-29T12:32:59Z</time>
      </trkpt>
      <trkpt lat="43.388470" lon="1.462124">
        <ele>213.1</ele>
        <time>2012-10-29T12:33:07Z</time>
      </trkpt>
      <trkpt lat="43.388403" lon="1.462243">
        <ele>213.1</ele>
        <time>2012-10-29T12:33:32Z</time>
      </trkpt>
      <trkpt lat="43.388337" lon="1.462361">
        <ele>213.6</ele>
        <time>2012-10-29T12:34:02Z</time>
      </trkpt>
      <trkpt lat="43.388264" lon="1.462458">
        <ele>213.6</ele>
        <time>2012-10-29T12:34:10Z</time>
      </trkpt>
      <trkpt lat="43.388254" lon="1.462591">
        <ele>214.0</ele>
        <time>2012-10-29T12:34:17Z</time>
      </trkpt>
      <trkpt lat="43.388268" lon="1.462724">
        <ele>213.6</ele>
        <time>2012-10-29T12:34:24Z</time>
      </trkpt>
      <trkpt lat="43.388201" lon="1.462836">
        <ele>214.0</ele>
        <time>2012-10-29T12:34:31Z</time>
      </trkpt>
      <trkpt lat="43.388126" lon="1.462945">
        <ele>214.0</ele>
        <time>2012-10-29T12:34:38Z</time>
      </trkpt>
      <trkpt lat="43.388064" lon="1.463045">
        <ele>214.0</ele>
        <time>2012-10-29T12:34:44Z</time>
      </trkpt>
      <trkpt lat="43.387998" lon="1.463156">
        <ele>214.0</ele>
        <time>2012-10-29T12:34:51Z</time>
      </trkpt>
      <trkpt lat="43.387929" lon="1.463258">
        <ele>214.0</ele>
        <time>2012-10-29T12:34:59Z</time>
      </trkpt>
      <trkpt lat="43.387852" lon="1.463388">
        <ele>214.0</ele>
        <time>2012-10-29T12:35:06Z</time>
      </trkpt>
      <trkpt lat="43.387781" lon="1.463531">
        <ele>214.0</ele>
        <time>2012-10-29T12:35:13Z</time>
      </trkpt>
      <trkpt lat="43.387719" lon="1.463652">
        <ele>214.5</ele>
        <time>2012-10-29T12:35:19Z</time>
      </trkpt>
      <trkpt lat="43.387664" lon="1.463764">
        <ele>215.0</ele>
        <time>2012-10-29T12:35:25Z</time>
      </trkpt>
      <trkpt lat="43.387619" lon="1.463866">
        <ele>215.9</ele>
        <time>2012-10-29T12:35:33Z</time>
      </trkpt>
      <trkpt lat="43.387580" lon="1.463977">
        <ele>215.0</ele>
        <time>2012-10-29T12:35:46Z</time>
      </trkpt>
      <trkpt lat="43.387516" lon="1.464094">
        <ele>215.5</ele>
        <time>2012-10-29T12:36:02Z</time>
      </trkpt>
      <trkpt lat="43.387468" lon="1.464203">
        <ele>215.5</ele>
        <time>2012-10-29T12:36:10Z</time>
      </trkpt>
      <trkpt lat="43.387415" lon="1.464323">
        <ele>216.4</ele>
        <time>2012-10-29T12:36:17Z</time>
      </trkpt>
      <trkpt lat="43.387350" lon="1.464428">
        <ele>215.9</ele>
        <time>2012-10-29T12:36:34Z</time>
      </trkpt>
      <trkpt lat="43.387275" lon="1.464553">
        <ele>215.9</ele>
        <time>2012-10-29T12:36:41Z</time>
      </trkpt>
      <trkpt lat="43.387226" lon="1.464629">
        <ele>215.5</ele>
        <time>2012-10-29T12:36:58Z</time>
      </trkpt>
      <trkpt lat="43.387162" lon="1.464724">
        <ele>215.5</ele>
        <time>2012-10-29T12:37:05Z</time>
      </trkpt>
      <trkpt lat="43.387091" lon="1.464817">
        <ele>215.9</ele>
        <time>2012-10-29T12:37:11Z</time>
      </trkpt>
      <trkpt lat="43.387019" lon="1.464896">
        <ele>215.9</ele>
        <time>2012-10-29T12:37:17Z</time>
      </trkpt>
      <trkpt lat="43.386948" lon="1.464977">
        <ele>215.9</ele>
        <time>2012-10-29T12:37:23Z</time>
      </trkpt>
      <trkpt lat="43.386873" lon="1.465054">
        <ele>215.9</ele>
        <time>2012-10-29T12:37:29Z</time>
      </trkpt>
      <trkpt lat="43.386796" lon="1.465130">
        <ele>216.4</ele>
        <time>2012-10-29T12:37:35Z</time>
      </trkpt>
      <trkpt lat="43.386724" lon="1.465207">
        <ele>216.4</ele>
        <time>2012-10-29T12:37:41Z</time>
      </trkpt>
      <trkpt lat="43.386646" lon="1.465268">
        <ele>216.9</ele>
        <time>2012-10-29T12:37:47Z</time>
      </trkpt>
      <trkpt lat="43.386564" lon="1.465335">
        <ele>216.9</ele>
        <time>2012-10-29T12:37:53Z</time>
      </trkpt>
      <trkpt lat="43.386489" lon="1.465402">
        <ele>216.9</ele>
        <time>2012-10-29T12:37:59Z</time>
      </trkpt>
      <trkpt lat="43.386401" lon="1.465459">
        <ele>216.9</ele>
        <time>2012-10-29T12:38:06Z</time>
      </trkpt>
      <trkpt lat="43.386309" lon="1.465517">
        <ele>215.9</ele>
        <time>2012-10-29T12:38:13Z</time>
      </trkpt>
      <trkpt lat="43.386205" lon="1.465598">
        <ele>216.4</ele>
        <time>2012-10-29T12:38:30Z</time>
      </trkpt>
      <trkpt lat="43.386128" lon="1.465677">
        <ele>215.9</ele>
        <time>2012-10-29T12:38:41Z</time>
      </trkpt>
      <trkpt lat="43.386040" lon="1.465726">
        <ele>215.9</ele>
        <time>2012-10-29T12:38:48Z</time>
      </trkpt>
      <trkpt lat="43.385949" lon="1.465788">
        <ele>215.9</ele>
        <time>2012-10-29T12:38:55Z</time>
      </trkpt>
      <trkpt lat="43.385861" lon="1.465836">
        <ele>215.5</ele>
        <time>2012-10-29T12:39:01Z</time>
      </trkpt>
      <trkpt lat="43.385774" lon="1.465899">
        <ele>215.5</ele>
        <time>2012-10-29T12:39:07Z</time>
      </trkpt>
      <trkpt lat="43.385685" lon="1.465949">
        <ele>215.0</ele>
        <time>2012-10-29T12:39:13Z</time>
      </trkpt>
      <trkpt lat="43.385607" lon="1.465999">
        <ele>215.0</ele>
        <time>2012-10-29T12:39:19Z</time>
      </trkpt>
      <trkpt lat="43.385528" lon="1.466062">
        <ele>214.5</ele>
        <time>2012-10-29T12:39:25Z</time>
      </trkpt>
      <trkpt lat="43.385441" lon="1.466127">
        <ele>215.0</ele>
        <time>2012-10-29T12:39:31Z</time>
      </trkpt>
      <trkpt lat="43.385360" lon="1.466193">
        <ele>215.0</ele>
        <time>2012-10-29T12:39:37Z</time>
      </trkpt>
      <trkpt lat="43.385271" lon="1.466248">
        <ele>215.0</ele>
        <time>2012-10-29T12:39:43Z</time>
      </trkpt>
      <trkpt lat="43.385182" lon="1.466320">
        <ele>215.5</ele>
        <time>2012-10-29T12:39:50Z</time>
      </trkpt>
      <trkpt lat="43.385098" lon="1.466386">
        <ele>215.5</ele>
        <time>2012-10-29T12:39:56Z</time>
      </trkpt>
      <trkpt lat="43.385011" lon="1.466450">
        <ele>215.5</ele>
        <time>2012-10-29T12:40:02Z</time>
      </trkpt>
      <trkpt lat="43.384926" lon="1.466526">
        <ele>215.5</ele>
        <time>2012-10-29T12:40:09Z</time>
      </trkpt>
      <trkpt lat="43.384825" lon="1.466621">
        <ele>215.9</ele>
        <time>2012-10-29T12:40:16Z</time>
      </trkpt>
      <trkpt lat="43.384737" lon="1.466696">
        <ele>215.9</ele>
        <time>2012-10-29T12:40:23Z</time>
      </trkpt>
      <trkpt lat="43.384643" lon="1.466754">
        <ele>216.4</ele>
        <time>2012-10-29T12:40:32Z</time>
      </trkpt>
      <trkpt lat="43.384557" lon="1.466821">
        <ele>216.4</ele>
        <time>2012-10-29T12:40:43Z</time>
      </trkpt>
      <trkpt lat="43.384476" lon="1.466907">
        <ele>216.4</ele>
        <time>2012-10-29T12:40:54Z</time>
      </trkpt>
      <trkpt lat="43.384388" lon="1.466982">
        <ele>216.4</ele>
        <time>2012-10-29T12:41:03Z</time>
      </trkpt>
      <trkpt lat="43.384304" lon="1.467050">
        <ele>215.9</ele>
        <time>2012-10-29T12:41:12Z</time>
      </trkpt>
      <trkpt lat="43.384218" lon="1.467127">
        <ele>215.9</ele>
        <time>2012-10-29T12:41:21Z</time>
      </trkpt>
      <trkpt lat="43.384136" lon="1.467178">
        <ele>215.9</ele>
        <time>2012-10-29T12:41:29Z</time>
      </trkpt>
      <trkpt lat="43.384046" lon="1.467237">
        <ele>216.9</ele>
        <time>2012-10-29T12:41:39Z</time>
        <name>Route de Mouzens</name>
      </trkpt>
      <trkpt lat="43.383979" lon="1.467336">
        <ele>216.9</ele>
        <time>2012-10-29T12:42:04Z</time>
      </trkpt>
      <trkpt lat="43.383896" lon="1.467414">
        <ele>217.4</ele>
        <time>2012-10-29T12:42:14Z</time>
      </trkpt>
      <trkpt lat="43.383845" lon="1.467497">
        <ele>217.9</ele>
        <time>2012-10-29T12:42:35Z</time>
      </trkpt>
      <trkpt lat="43.383762" lon="1.467589">
        <ele>218.4</ele>
        <time>2012-10-29T12:43:12Z</time>
      </trkpt>
      <trkpt lat="43.383690" lon="1.467674">
        <ele>218.4</ele>
        <time>2012-10-29T12:43:21Z</time>
      </trkpt>
      <trkpt lat="43.383614" lon="1.467758">
        <ele>219.3</ele>
        <time>2012-10-29T12:43:30Z</time>
      </trkpt>
      <trkpt lat="43.383548" lon="1.467846">
        <ele>219.3</ele>
        <time>2012-10-29T12:43:38Z</time>
      </trkpt>
      <trkpt lat="43.383482" lon="1.467916">
        <ele>219.8</ele>
        <time>2012-10-29T12:43:47Z</time>
      </trkpt>
      <trkpt lat="43.383419" lon="1.468017">
        <ele>220.3</ele>
        <time>2012-10-29T12:43:56Z</time>
      </trkpt>
      <trkpt lat="43.383351" lon="1.468089">
        <ele>220.8</ele>
        <time>2012-10-29T12:44:05Z</time>
      </trkpt>
      <trkpt lat="43.383286" lon="1.468192">
        <ele>220.8</ele>
        <time>2012-10-29T12:44:14Z</time>
      </trkpt>
      <trkpt lat="43.383214" lon="1.468282">
        <ele>221.7</ele>
        <time>2012-10-29T12:44:23Z</time>
      </trkpt>
      <trkpt lat="43.383137" lon="1.468355">
        <ele>222.2</ele>
        <time>2012-10-29T12:44:41Z</time>
      </trkpt>
      <trkpt lat="43.383061" lon="1.468439">
        <ele>222.7</ele>
        <time>2012-10-29T12:44:50Z</time>
      </trkpt>
      <trkpt lat="43.382992" lon="1.468535">
        <ele>223.2</ele>
        <time>2012-10-29T12:44:59Z</time>
      </trkpt>
      <trkpt lat="43.382909" lon="1.468611">
        <ele>224.1</ele>
        <time>2012-10-29T12:45:08Z</time>
      </trkpt>
      <trkpt lat="43.382824" lon="1.468685">
        <ele>225.6</ele>
        <time>2012-10-29T12:45:19Z</time>
      </trkpt>
      <trkpt lat="43.382706" lon="1.468756">
        <ele>226.1</ele>
        <time>2012-10-29T12:45:31Z</time>
      </trkpt>
      <trkpt lat="43.382610" lon="1.468772">
        <ele>226.5</ele>
        <time>2012-10-29T12:45:41Z</time>
      </trkpt>
      <trkpt lat="43.382509" lon="1.468778">
        <ele>227.0</ele>
        <time>2012-10-29T12:45:50Z</time>
      </trkpt>
      <trkpt lat="43.382418" lon="1.468819">
        <ele>227.5</ele>
        <time>2012-10-29T12:45:58Z</time>
      </trkpt>
      <trkpt lat="43.382327" lon="1.468859">
        <ele>228.0</ele>
        <time>2012-10-29T12:46:16Z</time>
      </trkpt>
      <trkpt lat="43.382238" lon="1.468936">
        <ele>228.4</ele>
        <time>2012-10-29T12:46:26Z</time>
      </trkpt>
      <trkpt lat="43.382166" lon="1.469011">
        <ele>229.9</ele>
        <time>2012-10-29T12:46:34Z</time>
      </trkpt>
      <trkpt lat="43.382110" lon="1.469132">
        <ele>229.9</ele>
        <time>2012-10-29T12:46:43Z</time>
      </trkpt>
      <trkpt lat="43.382061" lon="1.469252">
        <ele>230.9</ele>
        <time>2012-10-29T12:46:53Z</time>
      </trkpt>
      <trkpt lat="43.382005" lon="1.469366">
        <ele>230.9</ele>
        <time>2012-10-29T12:47:02Z</time>
      </trkpt>
      <trkpt lat="43.381957" lon="1.469480">
        <ele>231.3</ele>
        <time>2012-10-29T12:47:10Z</time>
      </trkpt>
      <trkpt lat="43.381890" lon="1.469583">
        <ele>231.8</ele>
        <time>2012-10-29T12:47:18Z</time>
      </trkpt>
      <trkpt lat="43.381829" lon="1.469679">
        <ele>230.4</ele>
        <time>2012-10-29T12:47:27Z</time>
      </trkpt>
      <trkpt lat="43.381762" lon="1.469773">
        <ele>231.8</ele>
        <time>2012-10-29T12:47:35Z</time>
      </trkpt>
      <trkpt lat="43.381698" lon="1.469867">
        <ele>232.3</ele>
        <time>2012-10-29T12:47:44Z</time>
      </trkpt>
      <trkpt lat="43.381628" lon="1.469958">
        <ele>232.8</ele>
        <time>2012-10-29T12:47:53Z</time>
      </trkpt>
      <trkpt lat="43.381555" lon="1.470042">
        <ele>233.3</ele>
        <time>2012-10-29T12:48:02Z</time>
      </trkpt>
      <trkpt lat="43.381482" lon="1.470134">
        <ele>233.7</ele>
        <time>2012-10-29T12:48:11Z</time>
      </trkpt>
      <trkpt lat="43.381415" lon="1.470236">
        <ele>233.7</ele>
        <time>2012-10-29T12:48:20Z</time>
      </trkpt>
      <trkpt lat="43.381345" lon="1.470331">
        <ele>234.2</ele>
        <time>2012-10-29T12:48:29Z</time>
      </trkpt>
      <trkpt lat="43.381273" lon="1.470416">
        <ele>235.2</ele>
        <time>2012-10-29T12:48:39Z</time>
      </trkpt>
      <trkpt lat="43.381208" lon="1.470512">
        <ele>235.7</ele>
        <time>2012-10-29T12:48:48Z</time>
      </trkpt>
      <trkpt lat="43.381148" lon="1.470613">
        <ele>236.1</ele>
        <time>2012-10-29T12:49:42Z</time>
      </trkpt>
      <trkpt lat="43.381087" lon="1.470708">
        <ele>236.6</ele>
        <time>2012-10-29T12:49:55Z</time>
      </trkpt>
      <trkpt lat="43.381028" lon="1.470823">
        <ele>237.1</ele>
        <time>2012-10-29T12:50:17Z</time>
      </trkpt>
      <trkpt lat="43.380970" lon="1.470932">
        <ele>237.6</ele>
        <time>2012-10-29T12:50:33Z</time>
      </trkpt>
      <trkpt lat="43.380904" lon="1.471012">
        <ele>238.1</ele>
        <time>2012-10-29T12:50:42Z</time>
      </trkpt>
      <trkpt lat="43.380834" lon="1.471105">
        <ele>238.5</ele>
        <time>2012-10-29T12:50:50Z</time>
      </trkpt>
      <trkpt lat="43.380765" lon="1.471189">
        <ele>239.0</ele>
        <time>2012-10-29T12:50:58Z</time>
      </trkpt>
      <trkpt lat="43.380691" lon="1.471267">
        <ele>239.0</ele>
        <time>2012-10-29T12:51:07Z</time>
      </trkpt>
      <trkpt lat="43.380612" lon="1.471346">
        <ele>239.5</ele>
        <time>2012-10-29T12:51:16Z</time>
      </trkpt>
      <trkpt lat="43.380538" lon="1.471404">
        <ele>239.0</ele>
        <time>2012-10-29T12:51:25Z</time>
      </trkpt>
      <trkpt lat="43.380475" lon="1.471473">
        <ele>239.0</ele>
        <time>2012-10-29T12:52:22Z</time>
      </trkpt>
      <trkpt lat="43.380422" lon="1.471516">
        <ele>239.5</ele>
        <time>2012-10-29T12:52:41Z</time>
      </trkpt>
      <trkpt lat="43.380334" lon="1.471601">
        <ele>240.0</ele>
        <time>2012-10-29T12:52:50Z</time>
      </trkpt>
      <trkpt lat="43.380245" lon="1.471642">
        <ele>239.5</ele>
        <time>2012-10-29T12:52:59Z</time>
      </trkpt>
      <trkpt lat="43.380155" lon="1.471696">
        <ele>239.5</ele>
        <time>2012-10-29T12:53:08Z</time>
      </trkpt>
      <trkpt lat="43.380056" lon="1.471742">
        <ele>239.5</ele>
        <time>2012-10-29T12:53:18Z</time>
      </trkpt>
      <trkpt lat="43.379959" lon="1.471767">
        <ele>238.5</ele>
        <time>2012-10-29T12:53:28Z</time>
      </trkpt>
      <trkpt lat="43.379863" lon="1.471793">
        <ele>238.5</ele>
        <time>2012-10-29T12:53:38Z</time>
      </trkpt>
      <trkpt lat="43.379771" lon="1.471826">
        <ele>238.5</ele>
        <time>2012-10-29T12:53:55Z</time>
      </trkpt>
      <trkpt lat="43.379696" lon="1.471882">
        <ele>237.6</ele>
        <time>2012-10-29T12:54:06Z</time>
      </trkpt>
      <trkpt lat="43.379621" lon="1.471974">
        <ele>237.6</ele>
        <time>2012-10-29T12:54:17Z</time>
      </trkpt>
      <trkpt lat="43.379570" lon="1.472104">
        <ele>237.6</ele>
        <time>2012-10-29T12:54:26Z</time>
      </trkpt>
      <trkpt lat="43.379525" lon="1.472231">
        <ele>237.6</ele>
        <time>2012-10-29T12:54:35Z</time>
      </trkpt>
      <trkpt lat="43.379479" lon="1.472347">
        <ele>237.1</ele>
        <time>2012-10-29T12:54:44Z</time>
      </trkpt>
      <trkpt lat="43.379439" lon="1.472459">
        <ele>237.1</ele>
        <time>2012-10-29T12:54:53Z</time>
      </trkpt>
      <trkpt lat="43.379398" lon="1.472582">
        <ele>237.1</ele>
        <time>2012-10-29T12:55:01Z</time>
      </trkpt>
      <trkpt lat="43.379352" lon="1.472714">
        <ele>237.6</ele>
        <time>2012-10-29T12:55:10Z</time>
      </trkpt>
      <trkpt lat="43.379311" lon="1.472835">
        <ele>237.6</ele>
        <time>2012-10-29T12:55:18Z</time>
      </trkpt>
      <trkpt lat="43.379272" lon="1.472957">
        <ele>237.1</ele>
        <time>2012-10-29T12:55:25Z</time>
      </trkpt>
      <trkpt lat="43.379233" lon="1.473069">
        <ele>237.1</ele>
        <time>2012-10-29T12:55:32Z</time>
      </trkpt>
      <trkpt lat="43.379187" lon="1.473196">
        <ele>237.1</ele>
        <time>2012-10-29T12:55:39Z</time>
      </trkpt>
      <trkpt lat="43.379144" lon="1.473318">
        <ele>236.6</ele>
        <time>2012-10-29T12:55:46Z</time>
      </trkpt>
      <trkpt lat="43.379097" lon="1.473430">
        <ele>237.1</ele>
        <time>2012-10-29T12:55:53Z</time>
      </trkpt>
      <trkpt lat="43.379051" lon="1.473537">
        <ele>237.1</ele>
        <time>2012-10-29T12:56:00Z</time>
      </trkpt>
      <trkpt lat="43.379011" lon="1.473655">
        <ele>237.6</ele>
        <time>2012-10-29T12:56:07Z</time>
      </trkpt>
      <trkpt lat="43.378978" lon="1.473768">
        <ele>237.1</ele>
        <time>2012-10-29T12:56:14Z</time>
      </trkpt>
      <trkpt lat="43.378932" lon="1.473889">
        <ele>237.6</ele>
        <time>2012-10-29T12:56:21Z</time>
      </trkpt>
      <trkpt lat="43.378885" lon="1.474021">
        <ele>236.6</ele>
        <time>2012-10-29T12:56:28Z</time>
      </trkpt>
      <trkpt lat="43.378844" lon="1.474136">
        <ele>236.6</ele>
        <time>2012-10-29T12:56:35Z</time>
      </trkpt>
      <trkpt lat="43.378803" lon="1.474239">
        <ele>236.1</ele>
        <time>2012-10-29T12:56:42Z</time>
      </trkpt>
      <trkpt lat="43.378754" lon="1.474362">
        <ele>236.1</ele>
        <time>2012-10-29T12:56:49Z</time>
      </trkpt>
      <trkpt lat="43.378704" lon="1.474500">
        <ele>235.7</ele>
        <time>2012-10-29T12:56:57Z</time>
      </trkpt>
      <trkpt lat="43.378651" lon="1.474636">
        <ele>235.7</ele>
        <time>2012-10-29T12:57:04Z</time>
      </trkpt>
      <trkpt lat="43.378678" lon="1.474769">
        <ele>234.7</ele>
        <time>2012-10-29T12:57:11Z</time>
      </trkpt>
      <trkpt lat="43.378749" lon="1.474866">
        <ele>233.3</ele>
        <time>2012-10-29T12:57:18Z</time>
      </trkpt>
      <trkpt lat="43.378766" lon="1.475010">
        <ele>232.8</ele>
        <time>2012-10-29T12:57:26Z</time>
      </trkpt>
      <trkpt lat="43.378722" lon="1.475147">
        <ele>232.3</ele>
        <time>2012-10-29T12:57:33Z</time>
      </trkpt>
      <trkpt lat="43.378688" lon="1.475286">
        <ele>232.3</ele>
        <time>2012-10-29T12:57:40Z</time>
      </trkpt>
      <trkpt lat="43.378654" lon="1.475421">
        <ele>231.8</ele>
        <time>2012-10-29T12:57:48Z</time>
      </trkpt>
      <trkpt lat="43.378621" lon="1.475529">
        <ele>232.3</ele>
        <time>2012-10-29T12:58:04Z</time>
      </trkpt>
      <trkpt lat="43.378682" lon="1.475610">
        <ele>230.4</ele>
        <time>2012-10-29T12:58:12Z</time>
      </trkpt>
      <trkpt lat="43.378787" lon="1.475646">
        <ele>229.9</ele>
        <time>2012-10-29T12:58:21Z</time>
      </trkpt>
      <trkpt lat="43.378873" lon="1.475698">
        <ele>228.4</ele>
        <time>2012-10-29T12:58:33Z</time>
      </trkpt>
      <trkpt lat="43.378963" lon="1.475761">
        <ele>228.4</ele>
        <time>2012-10-29T12:58:43Z</time>
      </trkpt>
      <trkpt lat="43.379050" lon="1.475827">
        <ele>228.0</ele>
        <time>2012-10-29T12:58:52Z</time>
      </trkpt>
      <trkpt lat="43.379131" lon="1.475879">
        <ele>227.5</ele>
        <time>2012-10-29T12:59:00Z</time>
      </trkpt>
      <trkpt lat="43.379220" lon="1.475946">
        <ele>227.0</ele>
        <time>2012-10-29T12:59:08Z</time>
      </trkpt>
      <trkpt lat="43.379307" lon="1.476004">
        <ele>226.1</ele>
        <time>2012-10-29T12:59:16Z</time>
      </trkpt>
      <trkpt lat="43.379390" lon="1.476065">
        <ele>224.6</ele>
        <time>2012-10-29T12:59:24Z</time>
      </trkpt>
      <trkpt lat="43.379470" lon="1.476133">
        <ele>223.6</ele>
        <time>2012-10-29T12:59:32Z</time>
      </trkpt>
      <trkpt lat="43.379570" lon="1.476180">
        <ele>222.7</ele>
        <time>2012-10-29T12:59:53Z</time>
      </trkpt>
      <trkpt lat="43.379648" lon="1.476241">
        <ele>221.2</ele>
        <time>2012-10-29T13:00:03Z</time>
      </trkpt>
      <trkpt lat="43.379724" lon="1.476311">
        <ele>219.8</ele>
        <time>2012-10-29T13:00:13Z</time>
      </trkpt>
      <trkpt lat="43.379808" lon="1.476369">
        <ele>217.9</ele>
        <time>2012-10-29T13:00:22Z</time>
      </trkpt>
      <trkpt lat="43.379891" lon="1.476429">
        <ele>215.9</ele>
        <time>2012-10-29T13:00:30Z</time>
      </trkpt>
      <trkpt lat="43.379975" lon="1.476497">
        <ele>214.0</ele>
        <time>2012-10-29T13:00:39Z</time>
      </trkpt>
      <trkpt lat="43.380061" lon="1.476563">
        <ele>213.1</ele>
        <time>2012-10-29T13:00:47Z</time>
      </trkpt>
      <trkpt lat="43.380148" lon="1.476602">
        <ele>212.1</ele>
        <time>2012-10-29T13:01:00Z</time>
      </trkpt>
      <trkpt lat="43.380246" lon="1.476662">
        <ele>211.6</ele>
        <time>2012-10-29T13:01:08Z</time>
      </trkpt>
      <trkpt lat="43.380323" lon="1.476730">
        <ele>210.2</ele>
        <time>2012-10-29T13:01:15Z</time>
      </trkpt>
      <trkpt lat="43.380417" lon="1.476799">
        <ele>209.7</ele>
        <time>2012-10-29T13:01:22Z</time>
      </trkpt>
      <trkpt lat="43.380507" lon="1.476856">
        <ele>208.7</ele>
        <time>2012-10-29T13:01:30Z</time>
      </trkpt>
      <trkpt lat="43.380593" lon="1.476914">
        <ele>208.7</ele>
        <time>2012-10-29T13:01:37Z</time>
      </trkpt>
      <trkpt lat="43.380680" lon="1.476967">
        <ele>208.3</ele>
        <time>2012-10-29T13:01:44Z</time>
      </trkpt>
      <trkpt lat="43.380763" lon="1.477032">
        <ele>207.8</ele>
        <time>2012-10-29T13:01:51Z</time>
      </trkpt>
      <trkpt lat="43.380852" lon="1.477098">
        <ele>207.3</ele>
        <time>2012-10-29T13:01:59Z</time>
      </trkpt>
      <trkpt lat="43.380933" lon="1.477162">
        <ele>206.8</ele>
        <time>2012-10-29T13:02:06Z</time>
      </trkpt>
      <trkpt lat="43.381030" lon="1.477237">
        <ele>206.8</ele>
        <time>2012-10-29T13:02:14Z</time>
      </trkpt>
      <trkpt lat="43.381111" lon="1.477310">
        <ele>206.3</ele>
        <time>2012-10-29T13:02:22Z</time>
      </trkpt>
      <trkpt lat="43.381107" lon="1.477458">
        <ele>206.8</ele>
        <time>2012-10-29T13:02:31Z</time>
      </trkpt>
      <trkpt lat="43.381093" lon="1.477607">
        <ele>206.8</ele>
        <time>2012-10-29T13:03:04Z</time>
      </trkpt>
      <trkpt lat="43.381185" lon="1.477674">
        <ele>204.9</ele>
        <time>2012-10-29T13:03:13Z</time>
      </trkpt>
      <trkpt lat="43.381277" lon="1.477731">
        <ele>206.8</ele>
        <time>2012-10-29T13:03:21Z</time>
      </trkpt>
      <trkpt lat="43.381368" lon="1.477784">
        <ele>207.3</ele>
        <time>2012-10-29T13:03:28Z</time>
      </trkpt>
      <trkpt lat="43.381445" lon="1.477851">
        <ele>207.3</ele>
        <time>2012-10-29T13:03:35Z</time>
      </trkpt>
      <trkpt lat="43.381511" lon="1.477927">
        <ele>207.8</ele>
        <time>2012-10-29T13:04:07Z</time>
      </trkpt>
      <trkpt lat="43.381607" lon="1.477977">
        <ele>208.7</ele>
        <time>2012-10-29T13:04:18Z</time>
      </trkpt>
      <trkpt lat="43.381686" lon="1.478037">
        <ele>209.2</ele>
        <time>2012-10-29T13:04:27Z</time>
      </trkpt>
      <trkpt lat="43.381750" lon="1.478067">
        <ele>209.7</ele>
        <time>2012-10-29T13:05:21Z</time>
      </trkpt>
      <trkpt lat="43.381832" lon="1.478126">
        <ele>210.7</ele>
        <time>2012-10-29T13:05:30Z</time>
      </trkpt>
      <trkpt lat="43.381916" lon="1.478188">
        <ele>211.1</ele>
        <time>2012-10-29T13:05:38Z</time>
      </trkpt>
      <trkpt lat="43.382007" lon="1.478256">
        <ele>212.6</ele>
        <time>2012-10-29T13:05:46Z</time>
      </trkpt>
      <trkpt lat="43.382090" lon="1.478313">
        <ele>213.1</ele>
        <time>2012-10-29T13:05:53Z</time>
      </trkpt>
      <trkpt lat="43.382171" lon="1.478372">
        <ele>214.0</ele>
        <time>2012-10-29T13:06:00Z</time>
      </trkpt>
      <trkpt lat="43.382264" lon="1.478442">
        <ele>215.0</ele>
        <time>2012-10-29T13:06:07Z</time>
      </trkpt>
      <trkpt lat="43.382352" lon="1.478509">
        <ele>216.9</ele>
        <time>2012-10-29T13:06:14Z</time>
      </trkpt>
      <trkpt lat="43.382433" lon="1.478568">
        <ele>217.4</ele>
        <time>2012-10-29T13:06:21Z</time>
      </trkpt>
      <trkpt lat="43.382520" lon="1.478635">
        <ele>218.8</ele>
        <time>2012-10-29T13:06:28Z</time>
      </trkpt>
      <trkpt lat="43.382604" lon="1.478703">
        <ele>220.3</ele>
        <time>2012-10-29T13:06:35Z</time>
      </trkpt>
      <trkpt lat="43.382689" lon="1.478761">
        <ele>221.7</ele>
        <time>2012-10-29T13:06:42Z</time>
      </trkpt>
      <trkpt lat="43.382764" lon="1.478827">
        <ele>222.7</ele>
        <time>2012-10-29T13:06:49Z</time>
      </trkpt>
      <trkpt lat="43.382845" lon="1.478894">
        <ele>224.6</ele>
        <time>2012-10-29T13:06:56Z</time>
      </trkpt>
      <trkpt lat="43.382937" lon="1.478966">
        <ele>225.6</ele>
        <time>2012-10-29T13:07:04Z</time>
      </trkpt>
      <trkpt lat="43.383008" lon="1.479043">
        <ele>227.5</ele>
        <time>2012-10-29T13:07:14Z</time>
      </trkpt>
      <trkpt lat="43.383105" lon="1.479111">
        <ele>229.4</ele>
        <time>2012-10-29T13:07:22Z</time>
      </trkpt>
      <trkpt lat="43.383199" lon="1.479170">
        <ele>231.3</ele>
        <time>2012-10-29T13:07:30Z</time>
      </trkpt>
      <trkpt lat="43.383290" lon="1.479236">
        <ele>233.3</ele>
        <time>2012-10-29T13:07:38Z</time>
      </trkpt>
      <trkpt lat="43.383370" lon="1.479318">
        <ele>234.7</ele>
        <time>2012-10-29T13:07:46Z</time>
      </trkpt>
      <trkpt lat="43.383455" lon="1.479393">
        <ele>236.1</ele>
        <time>2012-10-29T13:07:55Z</time>
      </trkpt>
      <trkpt lat="43.383543" lon="1.479462">
        <ele>238.5</ele>
        <time>2012-10-29T13:08:03Z</time>
      </trkpt>
      <trkpt lat="43.383633" lon="1.479522">
        <ele>239.5</ele>
        <time>2012-10-29T13:08:11Z</time>
      </trkpt>
      <trkpt lat="43.383716" lon="1.479570">
        <ele>240.9</ele>
        <time>2012-10-29T13:08:19Z</time>
      </trkpt>
      <trkpt lat="43.383806" lon="1.479619">
        <ele>242.4</ele>
        <time>2012-10-29T13:08:28Z</time>
        <name>Briolis</name>
      </trkpt>
      <trkpt lat="43.383858" lon="1.479710">
        <ele>242.4</ele>
        <time>2012-10-29T13:08:46Z</time>
      </trkpt>
      <trkpt lat="43.383878" lon="1.479852">
        <ele>243.8</ele>
        <time>2012-10-29T13:08:55Z</time>
      </trkpt>
      <trkpt lat="43.383889" lon="1.479993">
        <ele>244.8</ele>
        <time>2012-10-29T13:09:03Z</time>
      </trkpt>
      <trkpt lat="43.383909" lon="1.480138">
        <ele>245.8</ele>
        <time>2012-10-29T13:09:11Z</time>
      </trkpt>
      <trkpt lat="43.383978" lon="1.480223">
        <ele>246.2</ele>
        <time>2012-10-29T13:09:18Z</time>
      </trkpt>
      <trkpt lat="43.384070" lon="1.480272">
        <ele>247.2</ele>
        <time>2012-10-29T13:09:25Z</time>
      </trkpt>
      <trkpt lat="43.384167" lon="1.480306">
        <ele>247.7</ele>
        <time>2012-10-29T13:09:33Z</time>
      </trkpt>
      <trkpt lat="43.384266" lon="1.480349">
        <ele>248.2</ele>
        <time>2012-10-29T13:09:41Z</time>
      </trkpt>
      <trkpt lat="43.384368" lon="1.480386">
        <ele>249.1</ele>
        <time>2012-10-29T13:09:49Z</time>
      </trkpt>
      <trkpt lat="43.384468" lon="1.480427">
        <ele>250.1</ele>
        <time>2012-10-29T13:09:58Z</time>
      </trkpt>
      <trkpt lat="43.384554" lon="1.480478">
        <ele>250.1</ele>
        <time>2012-10-29T13:10:08Z</time>
      </trkpt>
      <trkpt lat="43.384641" lon="1.480534">
        <ele>249.6</ele>
        <time>2012-10-29T13:10:19Z</time>
      </trkpt>
      <trkpt lat="43.384742" lon="1.480602">
        <ele>249.1</ele>
        <time>2012-10-29T13:10:33Z</time>
      </trkpt>
      <trkpt lat="43.384840" lon="1.480680">
        <ele>248.6</ele>
        <time>2012-10-29T13:10:45Z</time>
      </trkpt>
      <trkpt lat="43.384928" lon="1.480740">
        <ele>248.6</ele>
        <time>2012-10-29T13:10:54Z</time>
      </trkpt>
      <trkpt lat="43.384960" lon="1.480831">
        <ele>249.6</ele>
        <time>2012-10-29T13:11:05Z</time>
      </trkpt>
      <trkpt lat="43.384926" lon="1.480972">
        <ele>250.1</ele>
        <time>2012-10-29T13:11:15Z</time>
      </trkpt>
      <trkpt lat="43.384881" lon="1.481106">
        <ele>250.6</ele>
        <time>2012-10-29T13:11:26Z</time>
      </trkpt>
      <trkpt lat="43.384841" lon="1.481254">
        <ele>251.0</ele>
        <time>2012-10-29T13:11:38Z</time>
      </trkpt>
      <trkpt lat="43.384805" lon="1.481389">
        <ele>252.0</ele>
        <time>2012-10-29T13:11:48Z</time>
      </trkpt>
      <trkpt lat="43.384757" lon="1.481525">
        <ele>253.0</ele>
        <time>2012-10-29T13:11:58Z</time>
      </trkpt>
      <trkpt lat="43.384725" lon="1.481671">
        <ele>253.4</ele>
        <time>2012-10-29T13:12:08Z</time>
      </trkpt>
      <trkpt lat="43.384689" lon="1.481804">
        <ele>253.9</ele>
        <time>2012-10-29T13:12:19Z</time>
      </trkpt>
      <trkpt lat="43.384655" lon="1.481927">
        <ele>254.9</ele>
        <time>2012-10-29T13:12:29Z</time>
      </trkpt>
      <trkpt lat="43.384616" lon="1.482063">
        <ele>255.4</ele>
        <time>2012-10-29T13:12:39Z</time>
      </trkpt>
      <trkpt lat="43.384584" lon="1.482191">
        <ele>255.4</ele>
        <time>2012-10-29T13:12:50Z</time>
      </trkpt>
      <trkpt lat="43.384554" lon="1.482298">
        <ele>255.9</ele>
        <time>2012-10-29T13:13:00Z</time>
      </trkpt>
      <trkpt lat="43.384517" lon="1.482450">
        <ele>256.3</ele>
        <time>2012-10-29T13:13:11Z</time>
      </trkpt>
      <trkpt lat="43.384476" lon="1.482578">
        <ele>256.8</ele>
        <time>2012-10-29T13:13:22Z</time>
      </trkpt>
      <trkpt lat="43.384447" lon="1.482697">
        <ele>258.2</ele>
        <time>2012-10-29T13:13:33Z</time>
      </trkpt>
      <trkpt lat="43.384422" lon="1.482815">
        <ele>257.8</ele>
        <time>2012-10-29T13:13:48Z</time>
      </trkpt>
      <trkpt lat="43.384389" lon="1.482924">
        <ele>258.2</ele>
        <time>2012-10-29T13:13:58Z</time>
      </trkpt>
      <trkpt lat="43.384347" lon="1.483043">
        <ele>258.7</ele>
        <time>2012-10-29T13:14:09Z</time>
      </trkpt>
      <trkpt lat="43.384313" lon="1.483154">
        <ele>259.2</ele>
        <time>2012-10-29T13:14:19Z</time>
      </trkpt>
      <trkpt lat="43.384280" lon="1.483269">
        <ele>260.2</ele>
        <time>2012-10-29T13:14:29Z</time>
      </trkpt>
      <trkpt lat="43.384236" lon="1.483393">
        <ele>260.6</ele>
        <time>2012-10-29T13:14:40Z</time>
      </trkpt>
      <trkpt lat="43.384199" lon="1.483516">
        <ele>261.1</ele>
        <time>2012-10-29T13:14:51Z</time>
      </trkpt>
      <trkpt lat="43.384158" lon="1.483638">
        <ele>261.6</ele>
        <time>2012-10-29T13:15:02Z</time>
      </trkpt>
      <trkpt lat="43.384130" lon="1.483756">
        <ele>262.1</ele>
        <time>2012-10-29T13:15:13Z</time>
      </trkpt>
      <trkpt lat="43.384093" lon="1.483877">
        <ele>262.6</ele>
        <time>2012-10-29T13:15:23Z</time>
      </trkpt>
      <trkpt lat="43.384051" lon="1.483995">
        <ele>263.1</ele>
        <time>2012-10-29T13:15:32Z</time>
      </trkpt>
      <trkpt lat="43.384013" lon="1.484113">
        <ele>264.0</ele>
        <time>2012-10-29T13:15:42Z</time>
      </trkpt>
      <trkpt lat="43.383973" lon="1.484233">
        <ele>264.0</ele>
        <time>2012-10-29T13:15:54Z</time>
      </trkpt>
      <trkpt lat="43.383941" lon="1.484352">
        <ele>264.0</ele>
        <time>2012-10-29T13:16:05Z</time>
      </trkpt>
      <trkpt lat="43.383915" lon="1.484482">
        <ele>263.5</ele>
        <time>2012-10-29T13:16:15Z</time>
      </trkpt>
      <trkpt lat="43.383931" lon="1.484625">
        <ele>264.0</ele>
        <time>2012-10-29T13:16:26Z</time>
      </trkpt>
      <trkpt lat="43.383965" lon="1.484786">
        <ele>265.0</ele>
        <time>2012-10-29T13:16:35Z</time>
      </trkpt>
      <trkpt lat="43.383999" lon="1.484942">
        <ele>264.5</ele>
        <time>2012-10-29T13:16:44Z</time>
      </trkpt>
      <trkpt lat="43.384032" lon="1.485102">
        <ele>265.0</ele>
        <time>2012-10-29T13:16:54Z</time>
      </trkpt>
      <trkpt lat="43.384069" lon="1.485271">
        <ele>265.0</ele>
        <time>2012-10-29T13:17:05Z</time>
      </trkpt>
      <trkpt lat="43.384088" lon="1.485414">
        <ele>265.0</ele>
        <time>2012-10-29T13:17:13Z</time>
      </trkpt>
      <trkpt lat="43.384107" lon="1.485552">
        <ele>264.5</ele>
        <time>2012-10-29T13:17:21Z</time>
      </trkpt>
      <trkpt lat="43.384159" lon="1.485703">
        <ele>265.0</ele>
        <time>2012-10-29T13:17:30Z</time>
      </trkpt>
      <trkpt lat="43.384195" lon="1.485856">
        <ele>264.0</ele>
        <time>2012-10-29T13:17:39Z</time>
      </trkpt>
      <trkpt lat="43.384251" lon="1.486020">
        <ele>264.0</ele>
        <time>2012-10-29T13:17:50Z</time>
      </trkpt>
      <trkpt lat="43.384301" lon="1.486192">
        <ele>263.1</ele>
        <time>2012-10-29T13:18:00Z</time>
      </trkpt>
      <trkpt lat="43.384334" lon="1.486341">
        <ele>263.1</ele>
        <time>2012-10-29T13:18:09Z</time>
      </trkpt>
      <trkpt lat="43.384388" lon="1.486431">
        <ele>261.6</ele>
        <time>2012-10-29T13:18:25Z</time>
      </trkpt>
      <trkpt lat="43.384498" lon="1.486374">
        <ele>259.2</ele>
        <time>2012-10-29T13:18:37Z</time>
      </trkpt>
      <trkpt lat="43.384608" lon="1.486343">
        <ele>257.8</ele>
        <time>2012-10-29T13:18:49Z</time>
      </trkpt>
      <trkpt lat="43.384715" lon="1.486297">
        <ele>256.8</ele>
        <time>2012-10-29T13:19:00Z</time>
      </trkpt>
      <trkpt lat="43.384808" lon="1.486238">
        <ele>255.9</ele>
        <time>2012-10-29T13:19:12Z</time>
      </trkpt>
      <trkpt lat="43.384907" lon="1.486185">
        <ele>254.9</ele>
        <time>2012-10-29T13:19:23Z</time>
      </trkpt>
      <trkpt lat="43.385001" lon="1.486140">
        <ele>254.4</ele>
        <time>2012-10-29T13:19:33Z</time>
      </trkpt>
      <trkpt lat="43.385091" lon="1.486107">
        <ele>253.9</ele>
        <time>2012-10-29T13:19:42Z</time>
      </trkpt>
      <trkpt lat="43.385182" lon="1.486054">
        <ele>253.0</ele>
        <time>2012-10-29T13:19:52Z</time>
      </trkpt>
      <trkpt lat="43.385277" lon="1.486009">
        <ele>253.0</ele>
        <time>2012-10-29T13:20:02Z</time>
      </trkpt>
      <trkpt lat="43.385374" lon="1.485964">
        <ele>252.0</ele>
        <time>2012-10-29T13:20:12Z</time>
      </trkpt>
      <trkpt lat="43.385469" lon="1.485923">
        <ele>252.5</ele>
        <time>2012-10-29T13:20:21Z</time>
      </trkpt>
      <trkpt lat="43.385566" lon="1.485878">
        <ele>252.0</ele>
        <time>2012-10-29T13:20:30Z</time>
      </trkpt>
      <trkpt lat="43.385670" lon="1.485824">
        <ele>252.0</ele>
        <time>2012-10-29T13:20:40Z</time>
      </trkpt>
      <trkpt lat="43.385759" lon="1.485768">
        <ele>251.5</ele>
        <time>2012-10-29T13:20:48Z</time>
      </trkpt>
      <trkpt lat="43.385862" lon="1.485716">
        <ele>251.5</ele>
        <time>2012-10-29T13:20:57Z</time>
      </trkpt>
      <trkpt lat="43.385951" lon="1.485671">
        <ele>251.0</ele>
        <time>2012-10-29T13:21:06Z</time>
      </trkpt>
      <trkpt lat="43.386048" lon="1.485627">
        <ele>251.5</ele>
        <time>2012-10-29T13:21:15Z</time>
      </trkpt>
      <trkpt lat="43.386132" lon="1.485585">
        <ele>251.0</ele>
        <time>2012-10-29T13:21:23Z</time>
      </trkpt>
      <trkpt lat="43.386221" lon="1.485541">
        <ele>251.0</ele>
        <time>2012-10-29T13:21:31Z</time>
      </trkpt>
      <trkpt lat="43.386316" lon="1.485498">
        <ele>251.5</ele>
        <time>2012-10-29T13:21:39Z</time>
      </trkpt>
      <trkpt lat="43.386415" lon="1.485449">
        <ele>251.0</ele>
        <time>2012-10-29T13:21:47Z</time>
      </trkpt>
      <trkpt lat="43.386512" lon="1.485408">
        <ele>251.0</ele>
        <time>2012-10-29T13:21:55Z</time>
      </trkpt>
      <trkpt lat="43.386605" lon="1.485364">
        <ele>251.5</ele>
        <time>2012-10-29T13:22:03Z</time>
      </trkpt>
      <trkpt lat="43.386702" lon="1.485314">
        <ele>252.0</ele>
        <time>2012-10-29T13:22:11Z</time>
      </trkpt>
      <trkpt lat="43.386798" lon="1.485268">
        <ele>251.5</ele>
        <time>2012-10-29T13:22:19Z</time>
      </trkpt>
      <trkpt lat="43.386887" lon="1.485231">
        <ele>252.5</ele>
        <time>2012-10-29T13:22:27Z</time>
      </trkpt>
      <trkpt lat="43.386974" lon="1.485189">
        <ele>252.5</ele>
        <time>2012-10-29T13:22:35Z</time>
      </trkpt>
      <trkpt lat="43.387065" lon="1.485154">
        <ele>252.5</ele>
        <time>2012-10-29T13:22:43Z</time>
      </trkpt>
      <trkpt lat="43.387160" lon="1.485115">
        <ele>253.0</ele>
        <time>2012-10-29T13:22:51Z</time>
      </trkpt>
      <trkpt lat="43.387252" lon="1.485086">
        <ele>253.9</ele>
        <time>2012-10-29T13:22:58Z</time>
      </trkpt>
      <trkpt lat="43.387342" lon="1.485039">
        <ele>254.4</ele>
        <time>2012-10-29T13:23:05Z</time>
      </trkpt>
      <trkpt lat="43.387430" lon="1.484993">
        <ele>254.9</ele>
        <time>2012-10-29T13:23:12Z</time>
      </trkpt>
      <trkpt lat="43.387519" lon="1.484940">
        <ele>254.9</ele>
        <time>2012-10-29T13:23:19Z</time>
      </trkpt>
      <trkpt lat="43.387611" lon="1.484905">
        <ele>255.9</ele>
        <time>2012-10-29T13:23:26Z</time>
      </trkpt>
      <trkpt lat="43.387706" lon="1.484859">
        <ele>256.8</ele>
        <time>2012-10-29T13:23:34Z</time>
      </trkpt>
      <trkpt lat="43.387798" lon="1.484810">
        <ele>258.2</ele>
        <time>2012-10-29T13:23:41Z</time>
      </trkpt>
      <trkpt lat="43.387895" lon="1.484770">
        <ele>258.7</ele>
        <time>2012-10-29T13:23:48Z</time>
      </trkpt>
      <trkpt lat="43.387980" lon="1.484721">
        <ele>260.2</ele>
        <time>2012-10-29T13:23:55Z</time>
      </trkpt>
      <trkpt lat="43.388070" lon="1.484660">
        <ele>261.1</ele>
        <time>2012-10-29T13:24:02Z</time>
      </trkpt>
      <trkpt lat="43.388166" lon="1.484621">
        <ele>261.6</ele>
        <time>2012-10-29T13:24:09Z</time>
      </trkpt>
      <trkpt lat="43.388253" lon="1.484575">
        <ele>261.6</ele>
        <time>2012-10-29T13:24:16Z</time>
      </trkpt>
      <trkpt lat="43.388342" lon="1.484531">
        <ele>262.6</ele>
        <time>2012-10-29T13:24:23Z</time>
      </trkpt>
      <trkpt lat="43.388435" lon="1.484502">
        <ele>263.5</ele>
        <time>2012-10-29T13:24:30Z</time>
      </trkpt>
      <trkpt lat="43.388529" lon="1.484446">
        <ele>264.5</ele>
        <time>2012-10-29T13:24:38Z</time>
      </trkpt>
      <trkpt lat="43.388628" lon="1.484407">
        <ele>265.0</ele>
        <time>2012-10-29T13:24:46Z</time>
      </trkpt>
      <trkpt lat="43.388709" lon="1.484389">
        <ele>266.4</ele>
        <time>2012-10-29T13:24:54Z</time>
      </trkpt>
      <trkpt lat="43.388795" lon="1.484446">
        <ele>267.4</ele>
        <time>2012-10-29T13:25:03Z</time>
      </trkpt>
      <trkpt lat="43.388854" lon="1.484575">
        <ele>269.3</ele>
        <time>2012-10-29T13:25:13Z</time>
      </trkpt>
      <trkpt lat="43.388870" lon="1.484716">
        <ele>270.8</ele>
        <time>2012-10-29T13:25:21Z</time>
        <name>Villeraze</name>
      </trkpt>
      <trkpt lat="43.388934" lon="1.484870">
        <ele>271.7</ele>
        <time>2012-10-29T13:25:31Z</time>
      </trkpt>
      <trkpt lat="43.389015" lon="1.484972">
        <ele>272.7</ele>
        <time>2012-10-29T13:25:39Z</time>
      </trkpt>
      <trkpt lat="43.389099" lon="1.485024">
        <ele>273.6</ele>
        <time>2012-10-29T13:25:46Z</time>
      </trkpt>
      <trkpt lat="43.389207" lon="1.485032">
        <ele>273.6</ele>
        <time>2012-10-29T13:25:54Z</time>
      </trkpt>
      <trkpt lat="43.389306" lon="1.485015">
        <ele>274.6</ele>
        <time>2012-10-29T13:26:02Z</time>
      </trkpt>
      <trkpt lat="43.389394" lon="1.484927">
        <ele>275.1</ele>
        <time>2012-10-29T13:26:10Z</time>
      </trkpt>
      <trkpt lat="43.389461" lon="1.484821">
        <ele>274.6</ele>
        <time>2012-10-29T13:26:17Z</time>
      </trkpt>
      <trkpt lat="43.389512" lon="1.484691">
        <ele>274.6</ele>
        <time>2012-10-29T13:26:25Z</time>
      </trkpt>
      <trkpt lat="43.389546" lon="1.484571">
        <ele>274.6</ele>
        <time>2012-10-29T13:26:33Z</time>
      </trkpt>
      <trkpt lat="43.389580" lon="1.484449">
        <ele>275.6</ele>
        <time>2012-10-29T13:26:41Z</time>
      </trkpt>
      <trkpt lat="43.389628" lon="1.484316">
        <ele>275.6</ele>
        <time>2012-10-29T13:26:50Z</time>
      </trkpt>
      <trkpt lat="43.389701" lon="1.484222">
        <ele>275.6</ele>
        <time>2012-10-29T13:27:00Z</time>
      </trkpt>
      <trkpt lat="43.389750" lon="1.484187">
        <ele>275.6</ele>
        <time>2012-10-29T13:27:14Z</time>
      </trkpt>
      <trkpt lat="43.389804" lon="1.484041">
        <ele>276.0</ele>
        <time>2012-10-29T13:27:26Z</time>
      </trkpt>
      <trkpt lat="43.389814" lon="1.484073">
        <ele>276.5</ele>
        <time>2012-10-29T13:27:44Z</time>
      </trkpt>
      <trkpt lat="43.389883" lon="1.484157">
        <ele>277.0</ele>
        <time>2012-10-29T13:27:56Z</time>
      </trkpt>
      <trkpt lat="43.389885" lon="1.484159">
        <ele>276.5</ele>
        <time>2012-10-29T13:28:18Z</time>
      </trkpt>
      <trkpt lat="43.389892" lon="1.484080">
        <ele>276.0</ele>
        <time>2012-10-29T13:29:43Z</time>
      </trkpt>
      <trkpt lat="43.389864" lon="1.484115">
        <ele>276.5</ele>
        <time>2012-10-29T13:31:16Z</time>
      </trkpt>
      <trkpt lat="43.389865" lon="1.484078">
        <ele>276.5</ele>
        <time>2012-10-29T13:31:29Z</time>
      </trkpt>
      <trkpt lat="43.389917" lon="1.484113">
        <ele>170.8</ele>
        <time>2012-10-29T13:35:13Z</time>
      </trkpt>
      <trkpt lat="43.390031" lon="1.484159">
        <ele>170.3</ele>
        <time>2012-10-29T13:35:22Z</time>
      </trkpt>
      <trkpt lat="43.390130" lon="1.484207">
        <ele>169.3</ele>
        <time>2012-10-29T13:35:30Z</time>
      </trkpt>
      <trkpt lat="43.390232" lon="1.484246">
        <ele>167.9</ele>
        <time>2012-10-29T13:35:39Z</time>
      </trkpt>
      <trkpt lat="43.390334" lon="1.484296">
        <ele>167.4</ele>
        <time>2012-10-29T13:35:48Z</time>
      </trkpt>
      <trkpt lat="43.390437" lon="1.484338">
        <ele>166.4</ele>
        <time>2012-10-29T13:35:57Z</time>
      </trkpt>
      <trkpt lat="43.390553" lon="1.484342">
        <ele>164.5</ele>
        <time>2012-10-29T13:36:07Z</time>
      </trkpt>
      <trkpt lat="43.390655" lon="1.484332">
        <ele>163.6</ele>
        <time>2012-10-29T13:36:17Z</time>
      </trkpt>
      <trkpt lat="43.390739" lon="1.484291">
        <ele>162.6</ele>
        <time>2012-10-29T13:36:26Z</time>
      </trkpt>
      <trkpt lat="43.390863" lon="1.484281">
        <ele>162.1</ele>
        <time>2012-10-29T13:36:45Z</time>
      </trkpt>
      <trkpt lat="43.390959" lon="1.484238">
        <ele>162.1</ele>
        <time>2012-10-29T13:36:53Z</time>
      </trkpt>
      <trkpt lat="43.391051" lon="1.484183">
        <ele>161.2</ele>
        <time>2012-10-29T13:37:01Z</time>
      </trkpt>
      <trkpt lat="43.391151" lon="1.484126">
        <ele>160.2</ele>
        <time>2012-10-29T13:37:09Z</time>
      </trkpt>
      <trkpt lat="43.391240" lon="1.484058">
        <ele>159.7</ele>
        <time>2012-10-29T13:37:16Z</time>
      </trkpt>
      <trkpt lat="43.391324" lon="1.483983">
        <ele>159.2</ele>
        <time>2012-10-29T13:37:23Z</time>
      </trkpt>
      <trkpt lat="43.391419" lon="1.483912">
        <ele>158.8</ele>
        <time>2012-10-29T13:37:31Z</time>
      </trkpt>
      <trkpt lat="43.391507" lon="1.483853">
        <ele>157.8</ele>
        <time>2012-10-29T13:37:38Z</time>
      </trkpt>
      <trkpt lat="43.391607" lon="1.483814">
        <ele>157.3</ele>
        <time>2012-10-29T13:37:46Z</time>
      </trkpt>
      <trkpt lat="43.391702" lon="1.483788">
        <ele>157.3</ele>
        <time>2012-10-29T13:37:53Z</time>
      </trkpt>
      <trkpt lat="43.391800" lon="1.483765">
        <ele>157.3</ele>
        <time>2012-10-29T13:38:00Z</time>
      </trkpt>
      <trkpt lat="43.391901" lon="1.483742">
        <ele>156.8</ele>
        <time>2012-10-29T13:38:08Z</time>
      </trkpt>
      <trkpt lat="43.392002" lon="1.483742">
        <ele>157.3</ele>
        <time>2012-10-29T13:38:16Z</time>
      </trkpt>
      <trkpt lat="43.392094" lon="1.483731">
        <ele>157.3</ele>
        <time>2012-10-29T13:38:24Z</time>
      </trkpt>
      <trkpt lat="43.392203" lon="1.483756">
        <ele>157.3</ele>
        <time>2012-10-29T13:38:32Z</time>
      </trkpt>
      <trkpt lat="43.392310" lon="1.483802">
        <ele>158.8</ele>
        <time>2012-10-29T13:38:53Z</time>
      </trkpt>
      <trkpt lat="43.392402" lon="1.483819">
        <ele>160.2</ele>
        <time>2012-10-29T13:39:01Z</time>
      </trkpt>
      <trkpt lat="43.392470" lon="1.483860">
        <ele>162.1</ele>
        <time>2012-10-29T13:39:26Z</time>
      </trkpt>
      <trkpt lat="43.392539" lon="1.483984">
        <ele>161.6</ele>
        <time>2012-10-29T13:39:46Z</time>
      </trkpt>
      <trkpt lat="43.392602" lon="1.484126">
        <ele>160.7</ele>
        <time>2012-10-29T13:39:55Z</time>
      </trkpt>
      <trkpt lat="43.392664" lon="1.484241">
        <ele>158.8</ele>
        <time>2012-10-29T13:40:03Z</time>
      </trkpt>
      <trkpt lat="43.392743" lon="1.484363">
        <ele>157.3</ele>
        <time>2012-10-29T13:40:11Z</time>
      </trkpt>
      <trkpt lat="43.392815" lon="1.484483">
        <ele>155.4</ele>
        <time>2012-10-29T13:40:18Z</time>
      </trkpt>
      <trkpt lat="43.392893" lon="1.484592">
        <ele>154.4</ele>
        <time>2012-10-29T13:40:26Z</time>
      </trkpt>
      <trkpt lat="43.392980" lon="1.484670">
        <ele>152.5</ele>
        <time>2012-10-29T13:40:38Z</time>
      </trkpt>
      <trkpt lat="43.393070" lon="1.484754">
        <ele>151.5</ele>
        <time>2012-10-29T13:40:46Z</time>
      </trkpt>
      <trkpt lat="43.393177" lon="1.484837">
        <ele>149.1</ele>
        <time>2012-10-29T13:40:54Z</time>
      </trkpt>
      <trkpt lat="43.393271" lon="1.484872">
        <ele>148.2</ele>
        <time>2012-10-29T13:41:01Z</time>
      </trkpt>
      <trkpt lat="43.393388" lon="1.484883">
        <ele>146.3</ele>
        <time>2012-10-29T13:41:10Z</time>
      </trkpt>
      <trkpt lat="43.393501" lon="1.484844">
        <ele>145.3</ele>
        <time>2012-10-29T13:41:19Z</time>
      </trkpt>
      <trkpt lat="43.393522" lon="1.484992">
        <ele>143.4</ele>
        <time>2012-10-29T13:41:29Z</time>
      </trkpt>
      <trkpt lat="43.393487" lon="1.485141">
        <ele>141.9</ele>
        <time>2012-10-29T13:41:37Z</time>
      </trkpt>
      <trkpt lat="43.393512" lon="1.485311">
        <ele>139.1</ele>
        <time>2012-10-29T13:41:48Z</time>
      </trkpt>
      <trkpt lat="43.393599" lon="1.485456">
        <ele>136.6</ele>
        <time>2012-10-29T13:42:00Z</time>
      </trkpt>
      <trkpt lat="43.393729" lon="1.485612">
        <ele>135.2</ele>
        <time>2012-10-29T13:42:12Z</time>
      </trkpt>
      <trkpt lat="43.393819" lon="1.485723">
        <ele>133.8</ele>
        <time>2012-10-29T13:42:22Z</time>
      </trkpt>
      <trkpt lat="43.393922" lon="1.485830">
        <ele>132.3</ele>
        <time>2012-10-29T13:42:35Z</time>
      </trkpt>
      <trkpt lat="43.394013" lon="1.485928">
        <ele>131.8</ele>
        <time>2012-10-29T13:42:46Z</time>
      </trkpt>
      <trkpt lat="43.394096" lon="1.486002">
        <ele>131.4</ele>
        <time>2012-10-29T13:42:55Z</time>
      </trkpt>
      <trkpt lat="43.394180" lon="1.486094">
        <ele>130.4</ele>
        <time>2012-10-29T13:43:05Z</time>
      </trkpt>
      <trkpt lat="43.394260" lon="1.486168">
        <ele>129.9</ele>
        <time>2012-10-29T13:43:14Z</time>
      </trkpt>
      <trkpt lat="43.394349" lon="1.486242">
        <ele>129.4</ele>
        <time>2012-10-29T13:43:24Z</time>
      </trkpt>
      <trkpt lat="43.394432" lon="1.486267">
        <ele>128.5</ele>
        <time>2012-10-29T13:43:48Z</time>
      </trkpt>
      <trkpt lat="43.394481" lon="1.486222">
        <ele>129.4</ele>
        <time>2012-10-29T13:44:05Z</time>
      </trkpt>
      <trkpt lat="43.394475" lon="1.486363">
        <ele>128.9</ele>
        <time>2012-10-29T13:44:14Z</time>
      </trkpt>
      <trkpt lat="43.394569" lon="1.486463">
        <ele>127.5</ele>
        <time>2012-10-29T13:44:23Z</time>
      </trkpt>
      <trkpt lat="43.394650" lon="1.486555">
        <ele>126.6</ele>
        <time>2012-10-29T13:44:31Z</time>
      </trkpt>
      <trkpt lat="43.394735" lon="1.486529">
        <ele>126.1</ele>
        <time>2012-10-29T13:44:40Z</time>
      </trkpt>
      <trkpt lat="43.394764" lon="1.486366">
        <ele>127.5</ele>
        <time>2012-10-29T13:44:50Z</time>
      </trkpt>
      <trkpt lat="43.394784" lon="1.486221">
        <ele>128.9</ele>
        <time>2012-10-29T13:45:00Z</time>
      </trkpt>
      <trkpt lat="43.394829" lon="1.486071">
        <ele>130.4</ele>
        <time>2012-10-29T13:45:09Z</time>
      </trkpt>
      <trkpt lat="43.394877" lon="1.485923">
        <ele>131.4</ele>
        <time>2012-10-29T13:45:18Z</time>
      </trkpt>
      <trkpt lat="43.394920" lon="1.485790">
        <ele>132.3</ele>
        <time>2012-10-29T13:45:27Z</time>
      </trkpt>
      <trkpt lat="43.394954" lon="1.485656">
        <ele>133.3</ele>
        <time>2012-10-29T13:45:35Z</time>
      </trkpt>
      <trkpt lat="43.394997" lon="1.485506">
        <ele>133.3</ele>
        <time>2012-10-29T13:45:44Z</time>
      </trkpt>
      <trkpt lat="43.395039" lon="1.485354">
        <ele>134.2</ele>
        <time>2012-10-29T13:45:53Z</time>
      </trkpt>
      <trkpt lat="43.395092" lon="1.485212">
        <ele>135.2</ele>
        <time>2012-10-29T13:46:03Z</time>
      </trkpt>
      <trkpt lat="43.395145" lon="1.485055">
        <ele>136.2</ele>
        <time>2012-10-29T13:46:13Z</time>
      </trkpt>
      <trkpt lat="43.395214" lon="1.484907">
        <ele>137.1</ele>
        <time>2012-10-29T13:46:23Z</time>
      </trkpt>
      <trkpt lat="43.395279" lon="1.484771">
        <ele>138.1</ele>
        <time>2012-10-29T13:46:32Z</time>
      </trkpt>
      <trkpt lat="43.395339" lon="1.484652">
        <ele>139.1</ele>
        <time>2012-10-29T13:46:41Z</time>
      </trkpt>
      <trkpt lat="43.395404" lon="1.484523">
        <ele>141.0</ele>
        <time>2012-10-29T13:46:50Z</time>
      </trkpt>
      <trkpt lat="43.395487" lon="1.484402">
        <ele>142.4</ele>
        <time>2012-10-29T13:47:00Z</time>
      </trkpt>
      <trkpt lat="43.395559" lon="1.484294">
        <ele>144.3</ele>
        <time>2012-10-29T13:47:08Z</time>
      </trkpt>
      <trkpt lat="43.395602" lon="1.484168">
        <ele>146.3</ele>
        <time>2012-10-29T13:47:17Z</time>
      </trkpt>
      <trkpt lat="43.395629" lon="1.484032">
        <ele>147.2</ele>
        <time>2012-10-29T13:47:26Z</time>
      </trkpt>
      <trkpt lat="43.395648" lon="1.483887">
        <ele>148.7</ele>
        <time>2012-10-29T13:47:35Z</time>
      </trkpt>
      <trkpt lat="43.395660" lon="1.483762">
        <ele>149.6</ele>
        <time>2012-10-29T13:47:45Z</time>
      </trkpt>
      <trkpt lat="43.395676" lon="1.483621">
        <ele>151.5</ele>
        <time>2012-10-29T13:47:55Z</time>
      </trkpt>
      <trkpt lat="43.395690" lon="1.483487">
        <ele>153.5</ele>
        <time>2012-10-29T13:48:05Z</time>
      </trkpt>
      <trkpt lat="43.395702" lon="1.483353">
        <ele>154.9</ele>
        <time>2012-10-29T13:48:15Z</time>
      </trkpt>
      <trkpt lat="43.395694" lon="1.483220">
        <ele>156.4</ele>
        <time>2012-10-29T13:48:25Z</time>
      </trkpt>
      <trkpt lat="43.395706" lon="1.483095">
        <ele>157.3</ele>
        <time>2012-10-29T13:48:34Z</time>
      </trkpt>
      <trkpt lat="43.395712" lon="1.482958">
        <ele>159.2</ele>
        <time>2012-10-29T13:48:44Z</time>
      </trkpt>
      <trkpt lat="43.395719" lon="1.482828">
        <ele>160.7</ele>
        <time>2012-10-29T13:48:53Z</time>
      </trkpt>
      <trkpt lat="43.395713" lon="1.482697">
        <ele>163.1</ele>
        <time>2012-10-29T13:49:01Z</time>
      </trkpt>
      <trkpt lat="43.395718" lon="1.482560">
        <ele>164.5</ele>
        <time>2012-10-29T13:49:09Z</time>
      </trkpt>
      <trkpt lat="43.395730" lon="1.482398">
        <ele>165.0</ele>
        <time>2012-10-29T13:49:17Z</time>
      </trkpt>
      <trkpt lat="43.395738" lon="1.482269">
        <ele>166.4</ele>
        <time>2012-10-29T13:49:25Z</time>
      </trkpt>
      <trkpt lat="43.395770" lon="1.482160">
        <ele>167.9</ele>
        <time>2012-10-29T13:49:35Z</time>
      </trkpt>
      <trkpt lat="43.395801" lon="1.482016">
        <ele>168.4</ele>
        <time>2012-10-29T13:49:43Z</time>
      </trkpt>
      <trkpt lat="43.395855" lon="1.481898">
        <ele>168.9</ele>
        <time>2012-10-29T13:49:51Z</time>
      </trkpt>
      <trkpt lat="43.395916" lon="1.481766">
        <ele>169.3</ele>
        <time>2012-10-29T13:50:00Z</time>
      </trkpt>
      <trkpt lat="43.395996" lon="1.481642">
        <ele>168.9</ele>
        <time>2012-10-29T13:50:10Z</time>
      </trkpt>
      <trkpt lat="43.396087" lon="1.481484">
        <ele>168.4</ele>
        <time>2012-10-29T13:50:21Z</time>
      </trkpt>
      <trkpt lat="43.396174" lon="1.481336">
        <ele>168.4</ele>
        <time>2012-10-29T13:50:31Z</time>
      </trkpt>
      <trkpt lat="43.396249" lon="1.481207">
        <ele>168.4</ele>
        <time>2012-10-29T13:50:40Z</time>
      </trkpt>
      <trkpt lat="43.396316" lon="1.481072">
        <ele>168.4</ele>
        <time>2012-10-29T13:50:49Z</time>
      </trkpt>
      <trkpt lat="43.396379" lon="1.480961">
        <ele>168.4</ele>
        <time>2012-10-29T13:50:57Z</time>
      </trkpt>
      <trkpt lat="43.396456" lon="1.480840">
        <ele>168.4</ele>
        <time>2012-10-29T13:51:05Z</time>
      </trkpt>
      <trkpt lat="43.396514" lon="1.480707">
        <ele>168.9</ele>
        <time>2012-10-29T13:51:14Z</time>
      </trkpt>
      <trkpt lat="43.396574" lon="1.480560">
        <ele>168.9</ele>
        <time>2012-10-29T13:51:23Z</time>
      </trkpt>
      <trkpt lat="43.396630" lon="1.480434">
        <ele>169.3</ele>
        <time>2012-10-29T13:51:31Z</time>
      </trkpt>
      <trkpt lat="43.396680" lon="1.480310">
        <ele>169.8</ele>
        <time>2012-10-29T13:51:39Z</time>
      </trkpt>
      <trkpt lat="43.396732" lon="1.480164">
        <ele>170.3</ele>
        <time>2012-10-29T13:51:48Z</time>
      </trkpt>
      <trkpt lat="43.396784" lon="1.480039">
        <ele>171.7</ele>
        <time>2012-10-29T13:51:58Z</time>
      </trkpt>
      <trkpt lat="43.396857" lon="1.479886">
        <ele>174.1</ele>
        <time>2012-10-29T13:53:39Z</time>
      </trkpt>
      <trkpt lat="43.396910" lon="1.479770">
        <ele>175.1</ele>
        <time>2012-10-29T13:53:48Z</time>
      </trkpt>
      <trkpt lat="43.396961" lon="1.479651">
        <ele>175.1</ele>
        <time>2012-10-29T13:53:56Z</time>
      </trkpt>
      <trkpt lat="43.397020" lon="1.479530">
        <ele>175.6</ele>
        <time>2012-10-29T13:54:04Z</time>
      </trkpt>
      <trkpt lat="43.397078" lon="1.479398">
        <ele>176.5</ele>
        <time>2012-10-29T13:54:11Z</time>
      </trkpt>
      <trkpt lat="43.397131" lon="1.479280">
        <ele>176.5</ele>
        <time>2012-10-29T13:54:18Z</time>
      </trkpt>
      <trkpt lat="43.397192" lon="1.479169">
        <ele>176.1</ele>
        <time>2012-10-29T13:54:25Z</time>
      </trkpt>
      <trkpt lat="43.397241" lon="1.479023">
        <ele>176.1</ele>
        <time>2012-10-29T13:54:32Z</time>
      </trkpt>
      <trkpt lat="43.397305" lon="1.478911">
        <ele>177.5</ele>
        <time>2012-10-29T13:54:39Z</time>
      </trkpt>
      <trkpt lat="43.397359" lon="1.478821">
        <ele>177.5</ele>
        <time>2012-10-29T13:54:46Z</time>
      </trkpt>
      <trkpt lat="43.397438" lon="1.478707">
        <ele>178.5</ele>
        <time>2012-10-29T13:54:53Z</time>
      </trkpt>
      <trkpt lat="43.397509" lon="1.478583">
        <ele>178.9</ele>
        <time>2012-10-29T13:55:01Z</time>
      </trkpt>
      <trkpt lat="43.397577" lon="1.478482">
        <ele>179.4</ele>
        <time>2012-10-29T13:55:08Z</time>
      </trkpt>
      <trkpt lat="43.397638" lon="1.478360">
        <ele>179.4</ele>
        <time>2012-10-29T13:55:16Z</time>
      </trkpt>
      <trkpt lat="43.397710" lon="1.478234">
        <ele>179.9</ele>
        <time>2012-10-29T13:55:24Z</time>
      </trkpt>
      <trkpt lat="43.397775" lon="1.478124">
        <ele>180.9</ele>
        <time>2012-10-29T13:55:31Z</time>
      </trkpt>
      <trkpt lat="43.397822" lon="1.478001">
        <ele>181.8</ele>
        <time>2012-10-29T13:55:38Z</time>
      </trkpt>
      <trkpt lat="43.397859" lon="1.477872">
        <ele>182.3</ele>
        <time>2012-10-29T13:55:45Z</time>
      </trkpt>
      <trkpt lat="43.397902" lon="1.477753">
        <ele>183.3</ele>
        <time>2012-10-29T13:55:52Z</time>
      </trkpt>
      <trkpt lat="43.397939" lon="1.477621">
        <ele>183.3</ele>
        <time>2012-10-29T13:55:59Z</time>
      </trkpt>
      <trkpt lat="43.397985" lon="1.477494">
        <ele>183.8</ele>
        <time>2012-10-29T13:56:06Z</time>
      </trkpt>
      <trkpt lat="43.398024" lon="1.477382">
        <ele>184.7</ele>
        <time>2012-10-29T13:56:12Z</time>
      </trkpt>
      <trkpt lat="43.398063" lon="1.477259">
        <ele>185.7</ele>
        <time>2012-10-29T13:56:19Z</time>
      </trkpt>
      <trkpt lat="43.398102" lon="1.477128">
        <ele>185.7</ele>
        <time>2012-10-29T13:56:26Z</time>
      </trkpt>
      <trkpt lat="43.398146" lon="1.476999">
        <ele>187.1</ele>
        <time>2012-10-29T13:56:33Z</time>
      </trkpt>
      <trkpt lat="43.398216" lon="1.476905">
        <ele>187.1</ele>
        <time>2012-10-29T13:56:40Z</time>
      </trkpt>
      <trkpt lat="43.398309" lon="1.476933">
        <ele>186.1</ele>
        <time>2012-10-29T13:56:48Z</time>
      </trkpt>
      <trkpt lat="43.398399" lon="1.477013">
        <ele>186.6</ele>
        <time>2012-10-29T13:57:00Z</time>
      </trkpt>
      <trkpt lat="43.398490" lon="1.477114">
        <ele>186.1</ele>
        <time>2012-10-29T13:57:16Z</time>
      </trkpt>
      <trkpt lat="43.398563" lon="1.477222">
        <ele>187.1</ele>
        <time>2012-10-29T13:57:25Z</time>
      </trkpt>
      <trkpt lat="43.398651" lon="1.477296">
        <ele>186.6</ele>
        <time>2012-10-29T13:57:34Z</time>
      </trkpt>
      <trkpt lat="43.398756" lon="1.477308">
        <ele>187.1</ele>
        <time>2012-10-29T13:57:51Z</time>
      </trkpt>
      <trkpt lat="43.398863" lon="1.477294">
        <ele>187.1</ele>
        <time>2012-10-29T13:58:00Z</time>
      </trkpt>
      <trkpt lat="43.398968" lon="1.477269">
        <ele>187.1</ele>
        <time>2012-10-29T13:58:08Z</time>
      </trkpt>
      <trkpt lat="43.399069" lon="1.477233">
        <ele>188.1</ele>
        <time>2012-10-29T13:58:16Z</time>
      </trkpt>
      <trkpt lat="43.399171" lon="1.477196">
        <ele>188.1</ele>
        <time>2012-10-29T13:58:24Z</time>
      </trkpt>
      <trkpt lat="43.399260" lon="1.477157">
        <ele>188.6</ele>
        <time>2012-10-29T13:58:32Z</time>
      </trkpt>
      <trkpt lat="43.399353" lon="1.477128">
        <ele>189.0</ele>
        <time>2012-10-29T13:58:39Z</time>
      </trkpt>
      <trkpt lat="43.399458" lon="1.477107">
        <ele>189.5</ele>
        <time>2012-10-29T13:58:47Z</time>
      </trkpt>
      <trkpt lat="43.399556" lon="1.477071">
        <ele>189.5</ele>
        <time>2012-10-29T13:58:55Z</time>
      </trkpt>
      <trkpt lat="43.399644" lon="1.477046">
        <ele>190.0</ele>
        <time>2012-10-29T13:59:03Z</time>
      </trkpt>
      <trkpt lat="43.399744" lon="1.477014">
        <ele>190.0</ele>
        <time>2012-10-29T13:59:11Z</time>
      </trkpt>
      <trkpt lat="43.399829" lon="1.476982">
        <ele>190.0</ele>
        <time>2012-10-29T13:59:20Z</time>
      </trkpt>
      <trkpt lat="43.399913" lon="1.476934">
        <ele>191.0</ele>
        <time>2012-10-29T13:59:26Z</time>
      </trkpt>
      <trkpt lat="43.399998" lon="1.476879">
        <ele>191.4</ele>
        <time>2012-10-29T13:59:34Z</time>
      </trkpt>
      <trkpt lat="43.400087" lon="1.476842">
        <ele>191.4</ele>
        <time>2012-10-29T13:59:40Z</time>
      </trkpt>
      <trkpt lat="43.400173" lon="1.476812">
        <ele>191.4</ele>
        <time>2012-10-29T13:59:44Z</time>
      </trkpt>
      <trkpt lat="43.400244" lon="1.476783">
        <ele>192.4</ele>
        <time>2012-10-29T13:59:48Z</time>
      </trkpt>
      <trkpt lat="43.400304" lon="1.476758">
        <ele>192.4</ele>
        <time>2012-10-29T13:59:52Z</time>
      </trkpt>
      <trkpt lat="43.400382" lon="1.476723">
        <ele>192.4</ele>
        <time>2012-10-29T13:59:56Z</time>
      </trkpt>
      <trkpt lat="43.400442" lon="1.476662">
        <ele>192.4</ele>
        <time>2012-10-29T14:00:00Z</time>
      </trkpt>
      <trkpt lat="43.400487" lon="1.476573">
        <ele>192.9</ele>
        <time>2012-10-29T14:00:04Z</time>
      </trkpt>
      <trkpt lat="43.400508" lon="1.476500">
        <ele>192.9</ele>
        <time>2012-10-29T14:00:08Z</time>
      </trkpt>
      <trkpt lat="43.400506" lon="1.476395">
        <ele>193.4</ele>
        <time>2012-10-29T14:00:14Z</time>
      </trkpt>
      <trkpt lat="43.400498" lon="1.476291">
        <ele>193.4</ele>
        <time>2012-10-29T14:00:20Z</time>
      </trkpt>
      <trkpt lat="43.400498" lon="1.476150">
        <ele>193.8</ele>
        <time>2012-10-29T14:00:35Z</time>
      </trkpt>
      <trkpt lat="43.400537" lon="1.475977">
        <ele>194.3</ele>
        <time>2012-10-29T14:00:42Z</time>
      </trkpt>
      <trkpt lat="43.400573" lon="1.475824">
        <ele>194.3</ele>
        <time>2012-10-29T14:00:47Z</time>
      </trkpt>
      <trkpt lat="43.400588" lon="1.475698">
        <ele>194.3</ele>
        <time>2012-10-29T14:00:51Z</time>
      </trkpt>
      <trkpt lat="43.400595" lon="1.475590">
        <ele>194.3</ele>
        <time>2012-10-29T14:00:56Z</time>
      </trkpt>
      <trkpt lat="43.400601" lon="1.475474">
        <ele>194.3</ele>
        <time>2012-10-29T14:01:03Z</time>
      </trkpt>
      <trkpt lat="43.400629" lon="1.475339">
        <ele>194.8</ele>
        <time>2012-10-29T14:01:18Z</time>
      </trkpt>
      <trkpt lat="43.400666" lon="1.475199">
        <ele>194.8</ele>
        <time>2012-10-29T14:01:24Z</time>
      </trkpt>
      <trkpt lat="43.400711" lon="1.475081">
        <ele>194.8</ele>
        <time>2012-10-29T14:01:29Z</time>
      </trkpt>
      <trkpt lat="43.400777" lon="1.474878">
        <ele>195.3</ele>
        <time>2012-10-29T14:01:36Z</time>
      </trkpt>
      <trkpt lat="43.400857" lon="1.474783">
        <ele>195.8</ele>
        <time>2012-10-29T14:01:43Z</time>
      </trkpt>
      <trkpt lat="43.400937" lon="1.474710">
        <ele>197.2</ele>
        <time>2012-10-29T14:01:52Z</time>
      </trkpt>
      <trkpt lat="43.401011" lon="1.474633">
        <ele>197.7</ele>
        <time>2012-10-29T14:02:19Z</time>
      </trkpt>
      <trkpt lat="43.401083" lon="1.474561">
        <ele>198.6</ele>
        <time>2012-10-29T14:02:27Z</time>
      </trkpt>
      <trkpt lat="43.401155" lon="1.474482">
        <ele>199.1</ele>
        <time>2012-10-29T14:02:35Z</time>
      </trkpt>
      <trkpt lat="43.401241" lon="1.474410">
        <ele>199.6</ele>
        <time>2012-10-29T14:02:44Z</time>
      </trkpt>
      <trkpt lat="43.401326" lon="1.474330">
        <ele>200.1</ele>
        <time>2012-10-29T14:02:52Z</time>
      </trkpt>
      <trkpt lat="43.401414" lon="1.474251">
        <ele>200.1</ele>
        <time>2012-10-29T14:03:00Z</time>
      </trkpt>
      <trkpt lat="43.401491" lon="1.474173">
        <ele>200.6</ele>
        <time>2012-10-29T14:03:08Z</time>
      </trkpt>
      <trkpt lat="43.401575" lon="1.474102">
        <ele>201.1</ele>
        <time>2012-10-29T14:03:16Z</time>
      </trkpt>
      <trkpt lat="43.401649" lon="1.474026">
        <ele>200.6</ele>
        <time>2012-10-29T14:03:24Z</time>
      </trkpt>
      <trkpt lat="43.401717" lon="1.473940">
        <ele>202.0</ele>
        <time>2012-10-29T14:03:32Z</time>
      </trkpt>
      <trkpt lat="43.401801" lon="1.473870">
        <ele>202.0</ele>
        <time>2012-10-29T14:03:40Z</time>
      </trkpt>
      <trkpt lat="43.401879" lon="1.473794">
        <ele>202.5</ele>
        <time>2012-10-29T14:03:48Z</time>
      </trkpt>
      <trkpt lat="43.401961" lon="1.473716">
        <ele>202.5</ele>
        <time>2012-10-29T14:03:56Z</time>
      </trkpt>
      <trkpt lat="43.402049" lon="1.473651">
        <ele>203.5</ele>
        <time>2012-10-29T14:04:04Z</time>
      </trkpt>
      <trkpt lat="43.402145" lon="1.473577">
        <ele>203.9</ele>
        <time>2012-10-29T14:04:12Z</time>
      </trkpt>
      <trkpt lat="43.402234" lon="1.473500">
        <ele>205.4</ele>
        <time>2012-10-29T14:04:20Z</time>
        <name>Bifurcation </name>
      </trkpt>
      <trkpt lat="43.402301" lon="1.473419">
        <ele>205.4</ele>
        <time>2012-10-29T14:04:28Z</time>
      </trkpt>
      <trkpt lat="43.402354" lon="1.473393">
        <ele>207.3</ele>
        <time>2012-10-29T14:06:03Z</time>
      </trkpt>
      <trkpt lat="43.402434" lon="1.473445">
        <ele>208.3</ele>
        <time>2012-10-29T14:06:42Z</time>
      </trkpt>
      <trkpt lat="43.402538" lon="1.473494">
        <ele>208.3</ele>
        <time>2012-10-29T14:06:59Z</time>
      </trkpt>
      <trkpt lat="43.402627" lon="1.473544">
        <ele>207.3</ele>
        <time>2012-10-29T14:07:10Z</time>
      </trkpt>
      <trkpt lat="43.402719" lon="1.473599">
        <ele>205.9</ele>
        <time>2012-10-29T14:07:22Z</time>
      </trkpt>
      <trkpt lat="43.402824" lon="1.473669">
        <ele>203.5</ele>
        <time>2012-10-29T14:07:37Z</time>
      </trkpt>
      <trkpt lat="43.402936" lon="1.473745">
        <ele>200.6</ele>
        <time>2012-10-29T14:07:54Z</time>
      </trkpt>
      <trkpt lat="43.403046" lon="1.473822">
        <ele>199.1</ele>
        <time>2012-10-29T14:08:16Z</time>
      </trkpt>
      <trkpt lat="43.403135" lon="1.473914">
        <ele>197.7</ele>
        <time>2012-10-29T14:08:34Z</time>
      </trkpt>
      <trkpt lat="43.403224" lon="1.473995">
        <ele>195.3</ele>
        <time>2012-10-29T14:08:48Z</time>
      </trkpt>
      <trkpt lat="43.403339" lon="1.474047">
        <ele>193.8</ele>
        <time>2012-10-29T14:08:59Z</time>
      </trkpt>
      <trkpt lat="43.403449" lon="1.474101">
        <ele>192.9</ele>
        <time>2012-10-29T14:09:13Z</time>
      </trkpt>
      <trkpt lat="43.403550" lon="1.474146">
        <ele>192.9</ele>
        <time>2012-10-29T14:09:24Z</time>
      </trkpt>
      <trkpt lat="43.403637" lon="1.474191">
        <ele>191.4</ele>
        <time>2012-10-29T14:09:33Z</time>
      </trkpt>
      <trkpt lat="43.403729" lon="1.474216">
        <ele>191.0</ele>
        <time>2012-10-29T14:09:43Z</time>
      </trkpt>
      <trkpt lat="43.403828" lon="1.474226">
        <ele>191.0</ele>
        <time>2012-10-29T14:09:52Z</time>
      </trkpt>
      <trkpt lat="43.403928" lon="1.474241">
        <ele>189.5</ele>
        <time>2012-10-29T14:10:01Z</time>
      </trkpt>
      <trkpt lat="43.404026" lon="1.474269">
        <ele>189.0</ele>
        <time>2012-10-29T14:10:10Z</time>
      </trkpt>
      <trkpt lat="43.404122" lon="1.474308">
        <ele>188.6</ele>
        <time>2012-10-29T14:10:19Z</time>
      </trkpt>
      <trkpt lat="43.404221" lon="1.474328">
        <ele>188.6</ele>
        <time>2012-10-29T14:10:28Z</time>
      </trkpt>
      <trkpt lat="43.404325" lon="1.474351">
        <ele>188.1</ele>
        <time>2012-10-29T14:10:37Z</time>
      </trkpt>
      <trkpt lat="43.404427" lon="1.474345">
        <ele>187.6</ele>
        <time>2012-10-29T14:10:46Z</time>
      </trkpt>
      <trkpt lat="43.404519" lon="1.474298">
        <ele>187.1</ele>
        <time>2012-10-29T14:10:56Z</time>
      </trkpt>
      <trkpt lat="43.404613" lon="1.474266">
        <ele>186.6</ele>
        <time>2012-10-29T14:11:05Z</time>
      </trkpt>
      <trkpt lat="43.404709" lon="1.474243">
        <ele>186.6</ele>
        <time>2012-10-29T14:11:15Z</time>
      </trkpt>
      <trkpt lat="43.404729" lon="1.474229">
        <ele>187.1</ele>
        <time>2012-10-29T14:11:26Z</time>
      </trkpt>
      <trkpt lat="43.404794" lon="1.474224">
        <ele>187.1</ele>
        <time>2012-10-29T14:11:37Z</time>
      </trkpt>
      <trkpt lat="43.404930" lon="1.474229">
        <ele>188.6</ele>
        <time>2012-10-29T14:11:57Z</time>
      </trkpt>
      <trkpt lat="43.405032" lon="1.474240">
        <ele>189.5</ele>
        <time>2012-10-29T14:12:07Z</time>
      </trkpt>
      <trkpt lat="43.405127" lon="1.474232">
        <ele>190.5</ele>
        <time>2012-10-29T14:12:15Z</time>
      </trkpt>
      <trkpt lat="43.405222" lon="1.474238">
        <ele>192.4</ele>
        <time>2012-10-29T14:12:25Z</time>
      </trkpt>
      <trkpt lat="43.405309" lon="1.474243">
        <ele>193.4</ele>
        <time>2012-10-29T14:12:34Z</time>
      </trkpt>
      <trkpt lat="43.405402" lon="1.474209">
        <ele>195.3</ele>
        <time>2012-10-29T14:12:44Z</time>
      </trkpt>
      <trkpt lat="43.405498" lon="1.474170">
        <ele>197.7</ele>
        <time>2012-10-29T14:12:53Z</time>
      </trkpt>
      <trkpt lat="43.405593" lon="1.474137">
        <ele>199.6</ele>
        <time>2012-10-29T14:13:02Z</time>
      </trkpt>
      <trkpt lat="43.405684" lon="1.474087">
        <ele>201.5</ele>
        <time>2012-10-29T14:13:11Z</time>
      </trkpt>
      <trkpt lat="43.405805" lon="1.474066">
        <ele>203.5</ele>
        <time>2012-10-29T14:13:21Z</time>
      </trkpt>
      <trkpt lat="43.405916" lon="1.474048">
        <ele>205.9</ele>
        <time>2012-10-29T14:13:30Z</time>
      </trkpt>
      <trkpt lat="43.406021" lon="1.474019">
        <ele>207.3</ele>
        <time>2012-10-29T14:13:39Z</time>
      </trkpt>
      <trkpt lat="43.406121" lon="1.473977">
        <ele>208.7</ele>
        <time>2012-10-29T14:13:48Z</time>
      </trkpt>
      <trkpt lat="43.406211" lon="1.473910">
        <ele>210.2</ele>
        <time>2012-10-29T14:13:57Z</time>
      </trkpt>
      <trkpt lat="43.406287" lon="1.473801">
        <ele>211.1</ele>
        <time>2012-10-29T14:14:06Z</time>
      </trkpt>
      <trkpt lat="43.406314" lon="1.473647">
        <ele>213.1</ele>
        <time>2012-10-29T14:14:15Z</time>
      </trkpt>
      <trkpt lat="43.406336" lon="1.473506">
        <ele>214.0</ele>
        <time>2012-10-29T14:14:23Z</time>
      </trkpt>
      <trkpt lat="43.406356" lon="1.473361">
        <ele>214.5</ele>
        <time>2012-10-29T14:14:32Z</time>
      </trkpt>
      <trkpt lat="43.406359" lon="1.473205">
        <ele>215.0</ele>
        <time>2012-10-29T14:14:40Z</time>
      </trkpt>
      <trkpt lat="43.406378" lon="1.473047">
        <ele>215.5</ele>
        <time>2012-10-29T14:14:48Z</time>
      </trkpt>
      <trkpt lat="43.406404" lon="1.472911">
        <ele>216.9</ele>
        <time>2012-10-29T14:14:56Z</time>
      </trkpt>
      <trkpt lat="43.406431" lon="1.472755">
        <ele>217.9</ele>
        <time>2012-10-29T14:15:04Z</time>
      </trkpt>
      <trkpt lat="43.406447" lon="1.472618">
        <ele>218.4</ele>
        <time>2012-10-29T14:15:12Z</time>
      </trkpt>
      <trkpt lat="43.406462" lon="1.472484">
        <ele>219.3</ele>
        <time>2012-10-29T14:15:20Z</time>
      </trkpt>
      <trkpt lat="43.406486" lon="1.472321">
        <ele>219.8</ele>
        <time>2012-10-29T14:15:29Z</time>
      </trkpt>
      <trkpt lat="43.406528" lon="1.472176">
        <ele>220.3</ele>
        <time>2012-10-29T14:15:41Z</time>
        <name>Labruyere-Dorsa</name>
      </trkpt>
      <trkpt lat="43.406526" lon="1.472067">
        <ele>220.3</ele>
        <time>2012-10-29T14:16:19Z</time>
      </trkpt>
      <trkpt lat="43.406534" lon="1.471971">
        <ele>220.8</ele>
        <time>2012-10-29T14:16:46Z</time>
      </trkpt>
      <trkpt lat="43.406595" lon="1.471807">
        <ele>220.3</ele>
        <time>2012-10-29T14:17:01Z</time>
      </trkpt>
      <trkpt lat="43.406607" lon="1.471658">
        <ele>220.3</ele>
        <time>2012-10-29T14:17:10Z</time>
      </trkpt>
      <trkpt lat="43.406622" lon="1.471493">
        <ele>220.3</ele>
        <time>2012-10-29T14:17:20Z</time>
      </trkpt>
      <trkpt lat="43.406684" lon="1.471347">
        <ele>219.8</ele>
        <time>2012-10-29T14:17:33Z</time>
      </trkpt>
      <trkpt lat="43.406722" lon="1.471208">
        <ele>220.3</ele>
        <time>2012-10-29T14:17:42Z</time>
      </trkpt>
      <trkpt lat="43.406752" lon="1.471065">
        <ele>220.3</ele>
        <time>2012-10-29T14:17:51Z</time>
      </trkpt>
      <trkpt lat="43.406788" lon="1.470934">
        <ele>220.3</ele>
        <time>2012-10-29T14:18:01Z</time>
      </trkpt>
      <trkpt lat="43.406811" lon="1.470799">
        <ele>220.3</ele>
        <time>2012-10-29T14:18:21Z</time>
      </trkpt>
      <trkpt lat="43.406862" lon="1.470666">
        <ele>220.3</ele>
        <time>2012-10-29T14:18:30Z</time>
      </trkpt>
      <trkpt lat="43.406905" lon="1.470533">
        <ele>220.3</ele>
        <time>2012-10-29T14:18:38Z</time>
      </trkpt>
      <trkpt lat="43.406928" lon="1.470396">
        <ele>220.3</ele>
        <time>2012-10-29T14:18:46Z</time>
      </trkpt>
      <trkpt lat="43.406959" lon="1.470250">
        <ele>219.8</ele>
        <time>2012-10-29T14:18:56Z</time>
      </trkpt>
      <trkpt lat="43.406971" lon="1.470086">
        <ele>217.9</ele>
        <time>2012-10-29T14:19:05Z</time>
      </trkpt>
      <trkpt lat="43.406987" lon="1.469945">
        <ele>217.4</ele>
        <time>2012-10-29T14:19:14Z</time>
      </trkpt>
      <trkpt lat="43.406991" lon="1.469787">
        <ele>216.9</ele>
        <time>2012-10-29T14:19:23Z</time>
      </trkpt>
      <trkpt lat="43.407018" lon="1.469650">
        <ele>217.4</ele>
        <time>2012-10-29T14:19:32Z</time>
      </trkpt>
      <trkpt lat="43.407038" lon="1.469488">
        <ele>217.9</ele>
        <time>2012-10-29T14:19:41Z</time>
      </trkpt>
      <trkpt lat="43.407006" lon="1.469365">
        <ele>216.9</ele>
        <time>2012-10-29T14:19:50Z</time>
      </trkpt>
      <trkpt lat="43.406988" lon="1.469213">
        <ele>215.5</ele>
        <time>2012-10-29T14:19:59Z</time>
      </trkpt>
      <trkpt lat="43.406977" lon="1.469051">
        <ele>214.5</ele>
        <time>2012-10-29T14:20:09Z</time>
      </trkpt>
      <trkpt lat="43.406962" lon="1.468900">
        <ele>213.6</ele>
        <time>2012-10-29T14:20:20Z</time>
      </trkpt>
      <trkpt lat="43.406965" lon="1.468733">
        <ele>213.1</ele>
        <time>2012-10-29T14:20:32Z</time>
      </trkpt>
      <trkpt lat="43.406960" lon="1.468540">
        <ele>212.1</ele>
        <time>2012-10-29T14:20:45Z</time>
      </trkpt>
      <trkpt lat="43.406960" lon="1.468355">
        <ele>210.7</ele>
        <time>2012-10-29T14:20:57Z</time>
      </trkpt>
      <trkpt lat="43.406956" lon="1.468164">
        <ele>210.2</ele>
        <time>2012-10-29T14:21:09Z</time>
      </trkpt>
      <trkpt lat="43.406973" lon="1.467970">
        <ele>210.2</ele>
        <time>2012-10-29T14:21:21Z</time>
      </trkpt>
      <trkpt lat="43.406980" lon="1.467824">
        <ele>209.7</ele>
        <time>2012-10-29T14:21:31Z</time>
      </trkpt>
      <trkpt lat="43.406996" lon="1.467667">
        <ele>209.2</ele>
        <time>2012-10-29T14:21:40Z</time>
      </trkpt>
      <trkpt lat="43.407024" lon="1.467528">
        <ele>209.7</ele>
        <time>2012-10-29T14:21:50Z</time>
      </trkpt>
      <trkpt lat="43.407042" lon="1.467368">
        <ele>208.7</ele>
        <time>2012-10-29T14:22:02Z</time>
      </trkpt>
      <trkpt lat="43.407077" lon="1.467153">
        <ele>207.8</ele>
        <time>2012-10-29T14:22:17Z</time>
      </trkpt>
      <trkpt lat="43.407106" lon="1.466982">
        <ele>207.8</ele>
        <time>2012-10-29T14:22:27Z</time>
      </trkpt>
      <trkpt lat="43.407138" lon="1.466837">
        <ele>207.8</ele>
        <time>2012-10-29T14:22:39Z</time>
      </trkpt>
      <trkpt lat="43.407168" lon="1.466651">
        <ele>206.8</ele>
        <time>2012-10-29T14:22:50Z</time>
      </trkpt>
      <trkpt lat="43.407157" lon="1.466496">
        <ele>206.8</ele>
        <time>2012-10-29T14:22:59Z</time>
      </trkpt>
      <trkpt lat="43.407063" lon="1.466458">
        <ele>205.9</ele>
        <time>2012-10-29T14:23:08Z</time>
      </trkpt>
      <trkpt lat="43.406968" lon="1.466419">
        <ele>204.9</ele>
        <time>2012-10-29T14:23:17Z</time>
      </trkpt>
      <trkpt lat="43.406871" lon="1.466372">
        <ele>203.9</ele>
        <time>2012-10-29T14:23:27Z</time>
      </trkpt>
      <trkpt lat="43.406765" lon="1.466326">
        <ele>203.5</ele>
        <time>2012-10-29T14:23:37Z</time>
      </trkpt>
      <trkpt lat="43.406677" lon="1.466292">
        <ele>202.5</ele>
        <time>2012-10-29T14:23:45Z</time>
      </trkpt>
      <trkpt lat="43.406584" lon="1.466255">
        <ele>202.5</ele>
        <time>2012-10-29T14:23:54Z</time>
      </trkpt>
      <trkpt lat="43.406491" lon="1.466203">
        <ele>202.0</ele>
        <time>2012-10-29T14:24:12Z</time>
      </trkpt>
      <trkpt lat="43.406402" lon="1.466166">
        <ele>202.0</ele>
        <time>2012-10-29T14:24:21Z</time>
      </trkpt>
      <trkpt lat="43.406322" lon="1.466090">
        <ele>202.0</ele>
        <time>2012-10-29T14:24:31Z</time>
      </trkpt>
      <trkpt lat="43.406293" lon="1.465972">
        <ele>202.0</ele>
        <time>2012-10-29T14:24:41Z</time>
      </trkpt>
      <trkpt lat="43.406302" lon="1.465839">
        <ele>202.0</ele>
        <time>2012-10-29T14:24:50Z</time>
      </trkpt>
      <trkpt lat="43.406313" lon="1.465715">
        <ele>201.1</ele>
        <time>2012-10-29T14:25:15Z</time>
      </trkpt>
      <trkpt lat="43.406344" lon="1.465588">
        <ele>201.1</ele>
        <time>2012-10-29T14:25:24Z</time>
      </trkpt>
      <trkpt lat="43.406366" lon="1.465458">
        <ele>201.1</ele>
        <time>2012-10-29T14:25:33Z</time>
      </trkpt>
      <trkpt lat="43.406385" lon="1.465322">
        <ele>201.1</ele>
        <time>2012-10-29T14:25:42Z</time>
      </trkpt>
      <trkpt lat="43.406403" lon="1.465194">
        <ele>201.5</ele>
        <time>2012-10-29T14:25:56Z</time>
      </trkpt>
      <trkpt lat="43.406432" lon="1.465056">
        <ele>201.1</ele>
        <time>2012-10-29T14:26:05Z</time>
      </trkpt>
      <trkpt lat="43.406449" lon="1.464917">
        <ele>201.1</ele>
        <time>2012-10-29T14:26:13Z</time>
      </trkpt>
      <trkpt lat="43.406462" lon="1.464770">
        <ele>201.5</ele>
        <time>2012-10-29T14:26:22Z</time>
      </trkpt>
      <trkpt lat="43.406472" lon="1.464626">
        <ele>200.6</ele>
        <time>2012-10-29T14:26:31Z</time>
      </trkpt>
      <trkpt lat="43.406492" lon="1.464489">
        <ele>200.6</ele>
        <time>2012-10-29T14:26:41Z</time>
      </trkpt>
      <trkpt lat="43.406496" lon="1.464400">
        <ele>200.6</ele>
        <time>2012-10-29T14:26:52Z</time>
      </trkpt>
      <trkpt lat="43.406516" lon="1.464258">
        <ele>200.6</ele>
        <time>2012-10-29T14:27:01Z</time>
      </trkpt>
      <trkpt lat="43.406537" lon="1.464132">
        <ele>200.1</ele>
        <time>2012-10-29T14:27:09Z</time>
      </trkpt>
      <trkpt lat="43.406557" lon="1.463990">
        <ele>199.6</ele>
        <time>2012-10-29T14:27:17Z</time>
      </trkpt>
      <trkpt lat="43.406578" lon="1.463861">
        <ele>199.1</ele>
        <time>2012-10-29T14:27:26Z</time>
      </trkpt>
      <trkpt lat="43.406601" lon="1.463739">
        <ele>198.6</ele>
        <time>2012-10-29T14:27:34Z</time>
      </trkpt>
      <trkpt lat="43.406621" lon="1.463612">
        <ele>199.1</ele>
        <time>2012-10-29T14:27:42Z</time>
      </trkpt>
      <trkpt lat="43.406638" lon="1.463484">
        <ele>198.6</ele>
        <time>2012-10-29T14:27:50Z</time>
      </trkpt>
      <trkpt lat="43.406649" lon="1.463341">
        <ele>198.6</ele>
        <time>2012-10-29T14:27:59Z</time>
      </trkpt>
      <trkpt lat="43.406649" lon="1.463196">
        <ele>198.6</ele>
        <time>2012-10-29T14:28:08Z</time>
      </trkpt>
      <trkpt lat="43.406647" lon="1.463068">
        <ele>198.2</ele>
        <time>2012-10-29T14:28:16Z</time>
      </trkpt>
      <trkpt lat="43.406642" lon="1.462927">
        <ele>198.2</ele>
        <time>2012-10-29T14:28:25Z</time>
      </trkpt>
      <trkpt lat="43.406645" lon="1.462787">
        <ele>197.7</ele>
        <time>2012-10-29T14:28:34Z</time>
      </trkpt>
      <trkpt lat="43.406649" lon="1.462639">
        <ele>198.2</ele>
        <time>2012-10-29T14:28:44Z</time>
      </trkpt>
      <trkpt lat="43.406662" lon="1.462500">
        <ele>197.7</ele>
        <time>2012-10-29T14:28:53Z</time>
      </trkpt>
      <trkpt lat="43.406639" lon="1.462355">
        <ele>197.7</ele>
        <time>2012-10-29T14:29:02Z</time>
      </trkpt>
      <trkpt lat="43.406646" lon="1.462217">
        <ele>198.2</ele>
        <time>2012-10-29T14:29:11Z</time>
      </trkpt>
      <trkpt lat="43.406637" lon="1.462071">
        <ele>197.7</ele>
        <time>2012-10-29T14:29:19Z</time>
      </trkpt>
      <trkpt lat="43.406628" lon="1.461914">
        <ele>197.2</ele>
        <time>2012-10-29T14:29:29Z</time>
      </trkpt>
      <trkpt lat="43.406566" lon="1.461805">
        <ele>197.7</ele>
        <time>2012-10-29T14:29:38Z</time>
      </trkpt>
      <trkpt lat="43.406467" lon="1.461783">
        <ele>197.2</ele>
        <time>2012-10-29T14:29:47Z</time>
      </trkpt>
      <trkpt lat="43.406381" lon="1.461746">
        <ele>197.2</ele>
        <time>2012-10-29T14:29:55Z</time>
      </trkpt>
      <trkpt lat="43.406290" lon="1.461707">
        <ele>197.7</ele>
        <time>2012-10-29T14:30:04Z</time>
      </trkpt>
      <trkpt lat="43.406197" lon="1.461667">
        <ele>197.7</ele>
        <time>2012-10-29T14:30:13Z</time>
      </trkpt>
      <trkpt lat="43.406108" lon="1.461637">
        <ele>197.7</ele>
        <time>2012-10-29T14:30:22Z</time>
      </trkpt>
      <trkpt lat="43.406015" lon="1.461605">
        <ele>198.2</ele>
        <time>2012-10-29T14:30:31Z</time>
      </trkpt>
      <trkpt lat="43.405922" lon="1.461560">
        <ele>198.6</ele>
        <time>2012-10-29T14:30:55Z</time>
      </trkpt>
      <trkpt lat="43.405829" lon="1.461525">
        <ele>199.6</ele>
        <time>2012-10-29T14:31:05Z</time>
      </trkpt>
      <trkpt lat="43.405740" lon="1.461489">
        <ele>200.1</ele>
        <time>2012-10-29T14:31:13Z</time>
      </trkpt>
      <trkpt lat="43.405656" lon="1.461460">
        <ele>201.1</ele>
        <time>2012-10-29T14:31:22Z</time>
      </trkpt>
      <trkpt lat="43.405581" lon="1.461414">
        <ele>202.0</ele>
        <time>2012-10-29T14:31:48Z</time>
      </trkpt>
      <trkpt lat="43.405486" lon="1.461389">
        <ele>203.0</ele>
        <time>2012-10-29T14:31:57Z</time>
      </trkpt>
      <trkpt lat="43.405390" lon="1.461369">
        <ele>203.5</ele>
        <time>2012-10-29T14:32:06Z</time>
      </trkpt>
      <trkpt lat="43.405296" lon="1.461327">
        <ele>204.4</ele>
        <time>2012-10-29T14:32:14Z</time>
      </trkpt>
      <trkpt lat="43.405206" lon="1.461283">
        <ele>206.3</ele>
        <time>2012-10-29T14:32:22Z</time>
      </trkpt>
      <trkpt lat="43.405113" lon="1.461241">
        <ele>207.3</ele>
        <time>2012-10-29T14:32:30Z</time>
      </trkpt>
      <trkpt lat="43.405023" lon="1.461211">
        <ele>208.7</ele>
        <time>2012-10-29T14:32:38Z</time>
      </trkpt>
      <trkpt lat="43.404930" lon="1.461176">
        <ele>210.2</ele>
        <time>2012-10-29T14:32:46Z</time>
      </trkpt>
      <trkpt lat="43.404832" lon="1.461136">
        <ele>212.6</ele>
        <time>2012-10-29T14:32:57Z</time>
      </trkpt>
      <trkpt lat="43.404740" lon="1.461109">
        <ele>214.0</ele>
        <time>2012-10-29T14:33:05Z</time>
      </trkpt>
      <trkpt lat="43.404638" lon="1.461064">
        <ele>215.5</ele>
        <time>2012-10-29T14:33:13Z</time>
      </trkpt>
      <trkpt lat="43.404541" lon="1.461000">
        <ele>216.9</ele>
        <time>2012-10-29T14:33:21Z</time>
      </trkpt>
      <trkpt lat="43.404468" lon="1.460931">
        <ele>217.9</ele>
        <time>2012-10-29T14:33:29Z</time>
      </trkpt>
      <trkpt lat="43.404399" lon="1.460831">
        <ele>218.4</ele>
        <time>2012-10-29T14:33:38Z</time>
      </trkpt>
      <trkpt lat="43.404315" lon="1.460752">
        <ele>217.9</ele>
        <time>2012-10-29T14:33:47Z</time>
      </trkpt>
      <trkpt lat="43.404238" lon="1.460731">
        <ele>218.4</ele>
        <time>2012-10-29T14:34:07Z</time>
      </trkpt>
      <trkpt lat="43.404184" lon="1.460695">
        <ele>218.4</ele>
        <time>2012-10-29T14:36:40Z</time>
      </trkpt>
      <trkpt lat="43.404090" lon="1.460665">
        <ele>216.9</ele>
        <time>2012-10-29T14:36:57Z</time>
      </trkpt>
      <trkpt lat="43.404021" lon="1.460683">
        <ele>217.4</ele>
        <time>2012-10-29T14:38:08Z</time>
      </trkpt>
      <trkpt lat="43.403916" lon="1.460657">
        <ele>215.5</ele>
        <time>2012-10-29T14:38:17Z</time>
      </trkpt>
      <trkpt lat="43.403831" lon="1.460631">
        <ele>214.5</ele>
        <time>2012-10-29T14:38:35Z</time>
      </trkpt>
      <trkpt lat="43.403735" lon="1.460597">
        <ele>213.6</ele>
        <time>2012-10-29T14:38:44Z</time>
      </trkpt>
      <trkpt lat="43.403644" lon="1.460571">
        <ele>212.1</ele>
        <time>2012-10-29T14:38:53Z</time>
      </trkpt>
      <trkpt lat="43.403547" lon="1.460543">
        <ele>210.7</ele>
        <time>2012-10-29T14:39:02Z</time>
      </trkpt>
      <trkpt lat="43.403444" lon="1.460518">
        <ele>208.7</ele>
        <time>2012-10-29T14:39:11Z</time>
      </trkpt>
      <trkpt lat="43.403349" lon="1.460483">
        <ele>207.8</ele>
        <time>2012-10-29T14:39:19Z</time>
      </trkpt>
      <trkpt lat="43.403254" lon="1.460446">
        <ele>205.9</ele>
        <time>2012-10-29T14:39:27Z</time>
      </trkpt>
      <trkpt lat="43.403153" lon="1.460435">
        <ele>204.4</ele>
        <time>2012-10-29T14:39:35Z</time>
      </trkpt>
      <trkpt lat="43.403049" lon="1.460412">
        <ele>203.0</ele>
        <time>2012-10-29T14:39:43Z</time>
      </trkpt>
      <trkpt lat="43.402949" lon="1.460375">
        <ele>201.1</ele>
        <time>2012-10-29T14:39:51Z</time>
      </trkpt>
      <trkpt lat="43.402855" lon="1.460339">
        <ele>200.1</ele>
        <time>2012-10-29T14:39:58Z</time>
      </trkpt>
      <trkpt lat="43.402754" lon="1.460326">
        <ele>198.6</ele>
        <time>2012-10-29T14:40:06Z</time>
      </trkpt>
      <trkpt lat="43.402658" lon="1.460305">
        <ele>197.7</ele>
        <time>2012-10-29T14:40:13Z</time>
      </trkpt>
      <trkpt lat="43.402552" lon="1.460273">
        <ele>196.2</ele>
        <time>2012-10-29T14:40:21Z</time>
      </trkpt>
      <trkpt lat="43.402462" lon="1.460252">
        <ele>196.2</ele>
        <time>2012-10-29T14:40:28Z</time>
      </trkpt>
      <trkpt lat="43.402365" lon="1.460223">
        <ele>195.3</ele>
        <time>2012-10-29T14:40:35Z</time>
      </trkpt>
      <trkpt lat="43.402260" lon="1.460184">
        <ele>194.8</ele>
        <time>2012-10-29T14:40:43Z</time>
      </trkpt>
      <trkpt lat="43.402165" lon="1.460156">
        <ele>194.8</ele>
        <time>2012-10-29T14:40:50Z</time>
      </trkpt>
      <trkpt lat="43.402070" lon="1.460118">
        <ele>193.8</ele>
        <time>2012-10-29T14:40:57Z</time>
      </trkpt>
      <trkpt lat="43.401980" lon="1.460095">
        <ele>192.9</ele>
        <time>2012-10-29T14:41:03Z</time>
      </trkpt>
      <trkpt lat="43.401890" lon="1.460061">
        <ele>192.4</ele>
        <time>2012-10-29T14:41:10Z</time>
      </trkpt>
      <trkpt lat="43.401798" lon="1.460039">
        <ele>192.4</ele>
        <time>2012-10-29T14:41:17Z</time>
      </trkpt>
      <trkpt lat="43.401694" lon="1.460003">
        <ele>191.9</ele>
        <time>2012-10-29T14:41:24Z</time>
      </trkpt>
      <trkpt lat="43.401594" lon="1.459979">
        <ele>191.4</ele>
        <time>2012-10-29T14:41:31Z</time>
      </trkpt>
      <trkpt lat="43.401493" lon="1.459949">
        <ele>191.0</ele>
        <time>2012-10-29T14:41:38Z</time>
      </trkpt>
      <trkpt lat="43.401405" lon="1.459921">
        <ele>191.0</ele>
        <time>2012-10-29T14:41:44Z</time>
      </trkpt>
      <trkpt lat="43.401310" lon="1.459895">
        <ele>190.5</ele>
        <time>2012-10-29T14:41:51Z</time>
      </trkpt>
      <trkpt lat="43.401223" lon="1.459870">
        <ele>190.5</ele>
        <time>2012-10-29T14:41:58Z</time>
      </trkpt>
      <trkpt lat="43.401148" lon="1.459859">
        <ele>190.0</ele>
        <time>2012-10-29T14:42:29Z</time>
      </trkpt>
      <trkpt lat="43.401061" lon="1.459830">
        <ele>190.0</ele>
        <time>2012-10-29T14:42:41Z</time>
      </trkpt>
      <trkpt lat="43.400948" lon="1.459802">
        <ele>190.0</ele>
        <time>2012-10-29T14:42:54Z</time>
      </trkpt>
      <trkpt lat="43.400858" lon="1.459767">
        <ele>189.0</ele>
        <time>2012-10-29T14:43:24Z</time>
      </trkpt>
      <trkpt lat="43.400772" lon="1.459748">
        <ele>189.0</ele>
        <time>2012-10-29T14:43:33Z</time>
      </trkpt>
      <trkpt lat="43.400690" lon="1.459668">
        <ele>189.5</ele>
        <time>2012-10-29T14:43:47Z</time>
      </trkpt>
      <trkpt lat="43.400712" lon="1.459525">
        <ele>189.0</ele>
        <time>2012-10-29T14:44:00Z</time>
      </trkpt>
      <trkpt lat="43.400716" lon="1.459375">
        <ele>189.0</ele>
        <time>2012-10-29T14:44:11Z</time>
      </trkpt>
      <trkpt lat="43.400712" lon="1.459239">
        <ele>188.6</ele>
        <time>2012-10-29T14:44:20Z</time>
      </trkpt>
      <trkpt lat="43.400710" lon="1.459082">
        <ele>188.1</ele>
        <time>2012-10-29T14:44:30Z</time>
      </trkpt>
      <trkpt lat="43.400716" lon="1.458940">
        <ele>188.1</ele>
        <time>2012-10-29T14:44:44Z</time>
      </trkpt>
      <trkpt lat="43.400722" lon="1.458773">
        <ele>188.6</ele>
        <time>2012-10-29T14:44:56Z</time>
      </trkpt>
      <trkpt lat="43.400718" lon="1.458652">
        <ele>188.1</ele>
        <time>2012-10-29T14:45:12Z</time>
      </trkpt>
      <trkpt lat="43.400737" lon="1.458522">
        <ele>188.1</ele>
        <time>2012-10-29T14:45:25Z</time>
      </trkpt>
      <trkpt lat="43.400734" lon="1.458380">
        <ele>187.6</ele>
        <time>2012-10-29T14:45:34Z</time>
      </trkpt>
      <trkpt lat="43.400741" lon="1.458244">
        <ele>187.6</ele>
        <time>2012-10-29T14:45:42Z</time>
      </trkpt>
      <trkpt lat="43.400754" lon="1.458114">
        <ele>186.6</ele>
        <time>2012-10-29T14:45:50Z</time>
      </trkpt>
      <trkpt lat="43.400771" lon="1.457966">
        <ele>186.6</ele>
        <time>2012-10-29T14:45:59Z</time>
      </trkpt>
      <trkpt lat="43.400794" lon="1.457844">
        <ele>186.6</ele>
        <time>2012-10-29T14:46:07Z</time>
      </trkpt>
      <trkpt lat="43.400816" lon="1.457711">
        <ele>186.1</ele>
        <time>2012-10-29T14:46:16Z</time>
      </trkpt>
      <trkpt lat="43.400839" lon="1.457575">
        <ele>186.1</ele>
        <time>2012-10-29T14:46:25Z</time>
      </trkpt>
      <trkpt lat="43.400870" lon="1.457442">
        <ele>185.7</ele>
        <time>2012-10-29T14:46:33Z</time>
      </trkpt>
      <trkpt lat="43.400895" lon="1.457301">
        <ele>185.7</ele>
        <time>2012-10-29T14:46:42Z</time>
      </trkpt>
      <trkpt lat="43.400919" lon="1.457167">
        <ele>185.2</ele>
        <time>2012-10-29T14:46:50Z</time>
      </trkpt>
      <trkpt lat="43.400942" lon="1.457042">
        <ele>185.2</ele>
        <time>2012-10-29T14:46:58Z</time>
      </trkpt>
      <trkpt lat="43.400974" lon="1.456916">
        <ele>184.7</ele>
        <time>2012-10-29T14:47:06Z</time>
      </trkpt>
      <trkpt lat="43.400999" lon="1.456811">
        <ele>184.7</ele>
        <time>2012-10-29T14:47:14Z</time>
      </trkpt>
      <trkpt lat="43.401017" lon="1.456722">
        <ele>184.7</ele>
        <time>2012-10-29T14:48:21Z</time>
      </trkpt>
      <trkpt lat="43.401051" lon="1.456572">
        <ele>184.7</ele>
        <time>2012-10-29T14:48:31Z</time>
      </trkpt>
      <trkpt lat="43.401082" lon="1.456452">
        <ele>184.2</ele>
        <time>2012-10-29T14:48:39Z</time>
      </trkpt>
      <trkpt lat="43.401103" lon="1.456312">
        <ele>183.8</ele>
        <time>2012-10-29T14:48:47Z</time>
      </trkpt>
      <trkpt lat="43.401134" lon="1.456188">
        <ele>183.3</ele>
        <time>2012-10-29T14:48:54Z</time>
      </trkpt>
      <trkpt lat="43.401160" lon="1.456061">
        <ele>183.3</ele>
        <time>2012-10-29T14:49:02Z</time>
      </trkpt>
      <trkpt lat="43.401177" lon="1.455916">
        <ele>183.3</ele>
        <time>2012-10-29T14:49:10Z</time>
      </trkpt>
      <trkpt lat="43.401203" lon="1.455791">
        <ele>183.3</ele>
        <time>2012-10-29T14:49:17Z</time>
      </trkpt>
      <trkpt lat="43.401245" lon="1.455672">
        <ele>183.3</ele>
        <time>2012-10-29T14:49:24Z</time>
      </trkpt>
      <trkpt lat="43.401302" lon="1.455551">
        <ele>182.8</ele>
        <time>2012-10-29T14:49:31Z</time>
      </trkpt>
      <trkpt lat="43.401366" lon="1.455446">
        <ele>182.3</ele>
        <time>2012-10-29T14:49:38Z</time>
      </trkpt>
      <trkpt lat="43.401425" lon="1.455334">
        <ele>182.3</ele>
        <time>2012-10-29T14:49:45Z</time>
      </trkpt>
      <trkpt lat="43.401496" lon="1.455249">
        <ele>182.3</ele>
        <time>2012-10-29T14:49:52Z</time>
      </trkpt>
      <trkpt lat="43.401572" lon="1.455163">
        <ele>182.3</ele>
        <time>2012-10-29T14:49:59Z</time>
      </trkpt>
      <trkpt lat="43.401656" lon="1.455097">
        <ele>181.8</ele>
        <time>2012-10-29T14:50:06Z</time>
      </trkpt>
      <trkpt lat="43.401740" lon="1.455010">
        <ele>181.8</ele>
        <time>2012-10-29T14:50:13Z</time>
      </trkpt>
      <trkpt lat="43.401819" lon="1.454920">
        <ele>181.8</ele>
        <time>2012-10-29T14:50:20Z</time>
      </trkpt>
      <trkpt lat="43.401895" lon="1.454845">
        <ele>181.4</ele>
        <time>2012-10-29T14:50:27Z</time>
      </trkpt>
      <trkpt lat="43.401968" lon="1.454760">
        <ele>181.4</ele>
        <time>2012-10-29T14:50:34Z</time>
      </trkpt>
      <trkpt lat="43.402039" lon="1.454681">
        <ele>181.8</ele>
        <time>2012-10-29T14:50:41Z</time>
      </trkpt>
      <trkpt lat="43.402104" lon="1.454580">
        <ele>181.4</ele>
        <time>2012-10-29T14:50:48Z</time>
      </trkpt>
      <trkpt lat="43.402172" lon="1.454489">
        <ele>180.9</ele>
        <time>2012-10-29T14:50:55Z</time>
      </trkpt>
      <trkpt lat="43.402255" lon="1.454382">
        <ele>180.9</ele>
        <time>2012-10-29T14:51:03Z</time>
      </trkpt>
      <trkpt lat="43.402321" lon="1.454284">
        <ele>180.9</ele>
        <time>2012-10-29T14:51:10Z</time>
      </trkpt>
      <trkpt lat="43.402387" lon="1.454167">
        <ele>181.4</ele>
        <time>2012-10-29T14:51:18Z</time>
      </trkpt>
      <trkpt lat="43.402451" lon="1.454061">
        <ele>181.4</ele>
        <time>2012-10-29T14:51:26Z</time>
      </trkpt>
      <trkpt lat="43.402530" lon="1.453953">
        <ele>180.9</ele>
        <time>2012-10-29T14:51:34Z</time>
      </trkpt>
      <trkpt lat="43.402609" lon="1.453834">
        <ele>180.9</ele>
        <time>2012-10-29T14:51:42Z</time>
      </trkpt>
      <trkpt lat="43.402677" lon="1.453728">
        <ele>180.9</ele>
        <time>2012-10-29T14:51:49Z</time>
      </trkpt>
      <trkpt lat="43.402740" lon="1.453615">
        <ele>180.4</ele>
        <time>2012-10-29T14:51:57Z</time>
      </trkpt>
      <trkpt lat="43.402794" lon="1.453509">
        <ele>180.9</ele>
        <time>2012-10-29T14:52:04Z</time>
      </trkpt>
      <trkpt lat="43.402845" lon="1.453398">
        <ele>180.9</ele>
        <time>2012-10-29T14:52:11Z</time>
      </trkpt>
      <trkpt lat="43.402896" lon="1.453280">
        <ele>180.4</ele>
        <time>2012-10-29T14:52:18Z</time>
      </trkpt>
      <trkpt lat="43.402944" lon="1.453168">
        <ele>180.4</ele>
        <time>2012-10-29T14:52:25Z</time>
      </trkpt>
      <trkpt lat="43.402982" lon="1.453049">
        <ele>179.9</ele>
        <time>2012-10-29T14:52:32Z</time>
      </trkpt>
      <trkpt lat="43.403030" lon="1.452929">
        <ele>180.4</ele>
        <time>2012-10-29T14:52:39Z</time>
      </trkpt>
      <trkpt lat="43.403080" lon="1.452804">
        <ele>180.4</ele>
        <time>2012-10-29T14:52:46Z</time>
      </trkpt>
      <trkpt lat="43.403120" lon="1.452680">
        <ele>179.9</ele>
        <time>2012-10-29T14:52:53Z</time>
      </trkpt>
      <trkpt lat="43.403169" lon="1.452560">
        <ele>179.9</ele>
        <time>2012-10-29T14:53:00Z</time>
      </trkpt>
      <trkpt lat="43.403219" lon="1.452433">
        <ele>179.9</ele>
        <time>2012-10-29T14:53:07Z</time>
      </trkpt>
      <trkpt lat="43.403274" lon="1.452320">
        <ele>179.9</ele>
        <time>2012-10-29T14:53:14Z</time>
      </trkpt>
      <trkpt lat="43.403320" lon="1.452203">
        <ele>179.9</ele>
        <time>2012-10-29T14:53:21Z</time>
      </trkpt>
      <trkpt lat="43.403365" lon="1.452086">
        <ele>179.9</ele>
        <time>2012-10-29T14:53:28Z</time>
      </trkpt>
      <trkpt lat="43.403417" lon="1.451960">
        <ele>178.9</ele>
        <time>2012-10-29T14:53:35Z</time>
      </trkpt>
      <trkpt lat="43.403469" lon="1.451814">
        <ele>179.4</ele>
        <time>2012-10-29T14:53:43Z</time>
      </trkpt>
      <trkpt lat="43.403521" lon="1.451671">
        <ele>179.4</ele>
        <time>2012-10-29T14:53:51Z</time>
      </trkpt>
      <trkpt lat="43.403578" lon="1.451553">
        <ele>179.4</ele>
        <time>2012-10-29T14:53:58Z</time>
      </trkpt>
      <trkpt lat="43.403641" lon="1.451425">
        <ele>179.4</ele>
        <time>2012-10-29T14:54:06Z</time>
      </trkpt>
      <trkpt lat="43.403700" lon="1.451287">
        <ele>179.4</ele>
        <time>2012-10-29T14:54:14Z</time>
      </trkpt>
      <trkpt lat="43.403757" lon="1.451157">
        <ele>179.4</ele>
        <time>2012-10-29T14:54:22Z</time>
      </trkpt>
      <trkpt lat="43.403818" lon="1.451003">
        <ele>179.4</ele>
        <time>2012-10-29T14:54:32Z</time>
      </trkpt>
      <trkpt lat="43.403891" lon="1.450850">
        <ele>179.4</ele>
        <time>2012-10-29T14:54:42Z</time>
      </trkpt>
      <trkpt lat="43.403949" lon="1.450682">
        <ele>179.4</ele>
        <time>2012-10-29T14:54:51Z</time>
      </trkpt>
      <trkpt lat="43.404017" lon="1.450523">
        <ele>178.9</ele>
        <time>2012-10-29T14:55:01Z</time>
      </trkpt>
      <trkpt lat="43.404097" lon="1.450310">
        <ele>178.5</ele>
        <time>2012-10-29T14:55:16Z</time>
      </trkpt>
      <trkpt lat="43.404157" lon="1.450182">
        <ele>178.9</ele>
        <time>2012-10-29T14:55:21Z</time>
      </trkpt>
      <trkpt lat="43.404212" lon="1.450087">
        <ele>178.9</ele>
        <time>2012-10-29T14:55:24Z</time>
      </trkpt>
      <trkpt lat="43.404267" lon="1.449982">
        <ele>178.9</ele>
        <time>2012-10-29T14:55:28Z</time>
      </trkpt>
      <trkpt lat="43.404271" lon="1.449924">
        <ele>178.5</ele>
        <time>2012-10-29T14:55:36Z</time>
      </trkpt>
      <trkpt lat="43.404281" lon="1.449816">
        <ele>178.5</ele>
        <time>2012-10-29T14:55:42Z</time>
      </trkpt>
      <trkpt lat="43.404297" lon="1.449695">
        <ele>178.9</ele>
        <time>2012-10-29T14:55:49Z</time>
      </trkpt>
      <trkpt lat="43.404311" lon="1.449604">
        <ele>178.5</ele>
        <time>2012-10-29T14:55:56Z</time>
      </trkpt>
      <trkpt lat="43.404348" lon="1.449478">
        <ele>178.5</ele>
        <time>2012-10-29T14:56:05Z</time>
      </trkpt>
      <trkpt lat="43.404395" lon="1.449345">
        <ele>178.0</ele>
        <time>2012-10-29T14:56:14Z</time>
      </trkpt>
      <trkpt lat="43.404458" lon="1.449167">
        <ele>178.0</ele>
        <time>2012-10-29T14:56:27Z</time>
      </trkpt>
      <trkpt lat="43.404537" lon="1.448943">
        <ele>178.0</ele>
        <time>2012-10-29T14:56:41Z</time>
      </trkpt>
      <trkpt lat="43.404616" lon="1.448767">
        <ele>178.0</ele>
        <time>2012-10-29T14:56:53Z</time>
      </trkpt>
      <trkpt lat="43.404663" lon="1.448650">
        <ele>178.0</ele>
        <time>2012-10-29T14:57:01Z</time>
      </trkpt>
      <trkpt lat="43.404519" lon="1.448587">
        <ele>177.5</ele>
        <time>2012-10-29T14:57:18Z</time>
      </trkpt>
      <trkpt lat="43.404448" lon="1.448528">
        <ele>178.0</ele>
        <time>2012-10-29T14:57:23Z</time>
      </trkpt>
      <trkpt lat="43.404333" lon="1.448576">
        <ele>178.0</ele>
        <time>2012-10-29T14:57:36Z</time>
      </trkpt>
      <trkpt lat="43.404219" lon="1.448621">
        <ele>177.5</ele>
        <time>2012-10-29T14:57:45Z</time>
      </trkpt>
      <trkpt lat="43.404128" lon="1.448691">
        <ele>178.0</ele>
        <time>2012-10-29T14:58:23Z</time>
      </trkpt>
    </trkseg>
  </trk>
</gpx>

